EW5603 Weather Reports


Display with metric or nautical units.
time (UTC)temp
F
wind
direction
speed
MPH
gust
MPH
rain 1hr
in
rain 24hr
in
rain mn
in
humidity
%
barometer
mb
20221208200920 50 0 9.0 13.0 0.00 0.00 0.00 58 1029.6
20221208200840 50 338 9.0 13.0 0.00 0.00 0.00 57 1029.6
20221208200720 50 45 6.0 12.0 0.00 0.00 0.00 57 1029.6
20221208200620 50 45 4.0 5.0 0.00 0.00 0.00 57 1029.5
20221208200519 50 0 9.0 16.0 0.00 0.00 0.00 57 1029.5
20221208200420 50 315 7.0 9.0 0.00 0.00 0.00 57 1029.6
20221208200320 50 293 4.0 8.0 0.00 0.00 0.00 57 1029.6
20221208200220 50 0 8.0 11.0 0.00 0.00 0.00 57 1029.6
20221208200120 50 293 7.0 11.0 0.00 0.00 0.00 57 1029.5
20221208200020 50 315 6.0 14.0 0.00 0.00 0.00 57 1029.6
20221208195920 50 338 2.0 6.0 0.00 0.00 0.00 57 1029.6
20221208195821 50 338 4.0 8.0 0.00 0.00 0.00 57 1029.6
20221208195740 50 338 5.0 8.0 0.00 0.00 0.00 57 1029.7
20221208195620 50 0 7.0 11.0 0.00 0.00 0.00 56 1029.6
20221208195519 51 0 8.0 14.0 0.00 0.00 0.00 56 1029.6
20221208195439 51 338 10.0 17.0 0.00 0.00 0.00 57 1029.6
20221208195340 51 315 9.0 14.0 0.00 0.00 0.00 56 1029.6
20221208195241 51 315 4.0 13.0 0.00 0.00 0.00 57 1029.7
20221208195120 51 23 4.0 12.0 0.00 0.00 0.00 56 1029.8
20221208195020 51 315 9.0 15.0 0.00 0.00 0.00 56 1029.8
20221208194942 51 0 8.0 10.0 0.00 0.00 0.00 57 1029.8
20221208194820 51 23 7.0 11.0 0.00 0.00 0.00 56 1029.9
20221208194720 51 338 12.0 17.0 0.00 0.00 0.00 56 1029.9
20221208194620 51 315 11.0 15.0 0.00 0.00 0.00 56 1029.8
20221208194520 51 23 8.0 16.0 0.00 0.00 0.00 57 1029.9
20221208194421 51 338 8.0 12.0 0.00 0.00 0.00 56 1029.8
20221208194320 51 315 6.0 11.0 0.00 0.00 0.00 57 1029.8
20221208194241 51 338 9.0 14.0 0.00 0.00 0.00 57 1029.8
20221208194119 51 0 6.0 10.0 0.00 0.00 0.00 57 1029.8
20221208194040 51 0 6.0 9.0 0.00 0.00 0.00 57 1029.7
20221208193920 51 315 5.0 9.0 0.00 0.00 0.00 57 1029.6
20221208193820 51 45 3.0 4.0 0.00 0.00 0.00 57 1029.6
20221208193720 51 45 4.0 11.0 0.00 0.00 0.00 57 1029.6
20221208193620 51 23 8.0 11.0 0.00 0.00 0.00 57 1029.6
20221208193520 51 23 6.0 10.0 0.00 0.00 0.00 57 1029.5
20221208193440 51 23 6.0 11.0 0.00 0.00 0.00 57 1029.5
20221208193320 51 90 4.0 6.0 0.00 0.00 0.00 57 1029.5
20221208193220 51 0 6.0 11.0 0.00 0.00 0.00 57 1029.6
20221208193120 51 338 5.0 9.0 0.00 0.00 0.00 56 1029.6
20221208193020 51 0 8.0 13.0 0.00 0.00 0.00 56 1029.7
20221208192919 51 338 9.0 16.0 0.00 0.00 0.00 57 1029.6
20221208192820 51 0 6.0 10.0 0.00 0.00 0.00 57 1029.5
20221208192720 51 315 7.0 12.0 0.00 0.00 0.00 56 1029.5
20221208192640 51 0 4.0 9.0 0.00 0.00 0.00 57 1029.5
20221208192520 51 23 8.0 16.0 0.00 0.00 0.00 56 1029.5
20221208192440 51 315 5.0 12.0 0.00 0.00 0.00 56 1029.5
20221208192220 51 0 8.0 11.0 0.00 0.00 0.00 56 1029.7
20221208192120 51 23 3.0 4.0 0.00 0.00 0.00 57 1029.6
20221208192020 51 23 5.0 9.0 0.00 0.00 0.00 56 1029.6
20221208191921 51 0 8.0 11.0 0.00 0.00 0.00 56 1029.6
20221208191840 51 23 8.0 13.0 0.00 0.00 0.00 56 1029.6
20221208191719 51 338 10.0 15.0 0.00 0.00 0.00 56 1029.5
20221208191620 51 0 11.0 17.0 0.00 0.00 0.00 56 1029.5
20221208191520 51 0 11.0 15.0 0.00 0.00 0.00 56 1029.5
20221208191420 51 0 11.0 19.0 0.00 0.00 0.00 57 1029.6
20221208191321 52 0 6.0 12.0 0.00 0.00 0.00 56 1029.5
20221208191220 52 0 9.0 13.0 0.00 0.00 0.00 56 1029.6
20221208191120 52 338 8.0 12.0 0.00 0.00 0.00 56 1029.5
20221208191019 52 23 11.0 16.0 0.00 0.00 0.00 56 1029.4
20221208190919 52 23 9.0 19.0 0.00 0.00 0.00 57 1029.5
20221208190819 52 23 7.0 12.0 0.00 0.00 0.00 58 1029.6
20221208190719 52 23 5.0 9.0 0.00 0.00 0.00 58 1029.6
20221208190620 52 23 6.0 10.0 0.00 0.00 0.00 58 1029.6
20221208190520 52 0 10.0 17.0 0.00 0.00 0.00 57 1029.6
20221208190420 52 23 7.0 15.0 0.00 0.00 0.00 58 1029.7
20221208190340 52 23 4.0 5.0 0.00 0.00 0.00 59 1029.6
20221208190222 52 338 4.0 6.0 0.00 0.00 0.00 58 1029.6
20221208190120 52 338 3.0 5.0 0.00 0.00 0.00 58 1029.6
20221208190020 52 23 6.0 9.0 0.00 0.00 0.00 57 1029.6
20221208185940 52 0 6.0 9.0 0.00 0.00 0.00 57 1029.6
20221208185820 52 23 10.0 15.0 0.00 0.00 0.00 57 1029.6
20221208185719 52 338 9.0 13.0 0.00 0.00 0.00 57 1029.6
20221208185619 52 0 7.0 14.0 0.00 0.00 0.00 57 1029.6
20221208185600 52 23 8.0 18.0 0.00 0.00 0.00 58 1029.6
20221208185440 52 0 7.0 11.0 0.00 0.00 0.00 58 1029.6
20221208185320 52 23 4.0 8.0 0.00 0.00 0.00 58 1029.7
20221208185220 52 338 3.0 9.0 0.00 0.00 0.00 58 1029.7
20221208185120 52 0 8.0 11.0 0.00 0.00 0.00 58 1029.7
20221208185020 52 315 7.0 10.0 0.00 0.00 0.00 58 1029.7
20221208184919 53 0 5.0 10.0 0.00 0.00 0.00 58 1029.7
20221208184820 53 338 6.0 11.0 0.00 0.00 0.00 58 1029.7
20221208184720 53 0 7.0 12.0 0.00 0.00 0.00 58 1029.8
20221208184620 53 0 6.0 9.0 0.00 0.00 0.00 58 1029.8
20221208184519 53 23 9.0 13.0 0.00 0.00 0.00 58 1029.8
20221208184459 52 315 8.0 12.0 0.00 0.00 0.00 59 1029.8
20221208184319 52 0 3.0 6.0 0.00 0.00 0.00 59 1029.7
20221208184220 52 23 4.0 5.0 0.00 0.00 0.00 59 1029.7
20221208184120 52 315 4.0 8.0 0.00 0.00 0.00 60 1029.7
20221208184020 52 23 2.0 3.0 0.00 0.00 0.00 59 1029.6
20221208183920 52 0 5.0 8.0 0.00 0.00 0.00 59 1029.6
20221208183820 52 315 5.0 7.0 0.00 0.00 0.00 58 1029.6
20221208183719 52 0 8.0 14.0 0.00 0.00 0.00 59 1029.5
20221208183619 52 338 7.0 16.0 0.00 0.00 0.00 59 1029.5
20221208183520 52 0 3.0 5.0 0.00 0.00 0.00 60 1029.6
20221208183419 52 315 4.0 6.0 0.00 0.00 0.00 59 1029.5
20221208183319 52 315 3.0 5.0 0.00 0.00 0.00 59 1029.5
20221208183219 52 338 5.0 7.0 0.00 0.00 0.00 59 1029.5
20221208183119 52 338 7.0 9.0 0.00 0.00 0.00 59 1029.5
20221208183020 52 338 8.0 12.0 0.00 0.00 0.00 59 1029.5
20221208182920 52 23 7.0 12.0 0.00 0.00 0.00 59 1029.4
20221208182820 52 338 8.0 13.0 0.00 0.00 0.00 59 1029.4
20221208182720 52 23 6.0 10.0 0.00 0.00 0.00 59 1029.5
20221208182621 52 338 8.0 12.0 0.00 0.00 0.00 59 1029.4
20221208182520 52 315 8.0 10.0 0.00 0.01 0.00 59 1029.4
20221208182421 52 315 5.0 11.0 0.00 0.01 0.00 60 1029.4
20221208182321 52 23 3.0 7.0 0.00 0.01 0.00 60 1029.4
20221208182221 52 0 6.0 9.0 0.00 0.01 0.00 59 1029.4
20221208182119 52 23 5.0 9.0 0.00 0.01 0.00 59 1029.5
20221208182040 52 0 5.0 9.0 0.00 0.01 0.00 60 1029.4
20221208181921 52 315 3.0 8.0 0.00 0.01 0.00 60 1029.4
20221208181832 52 23 2.0 5.0 0.00 0.01 0.00 60 1029.4
20221208181720 52 23 4.0 8.0 0.00 0.01 0.00 59 1029.4
20221208181620 52 23 6.0 12.0 0.00 0.01 0.00 59 1029.5
20221208181519 52 23 9.0 12.0 0.00 0.01 0.00 59 1029.5
20221208181419 52 23 8.0 13.0 0.00 0.01 0.00 59 1029.5
20221208181321 52 23 6.0 14.0 0.00 0.01 0.00 60 1029.5
20221208181219 52 0 7.0 12.0 0.00 0.01 0.00 60 1029.5
20221208181141 52 338 5.0 10.0 0.00 0.01 0.00 60 1029.5
20221208181019 52 315 4.0 9.0 0.00 0.01 0.00 60 1029.5
20221208180939 52 0 8.0 15.0 0.00 0.01 0.00 59 1029.5
20221208180819 52 315 6.0 11.0 0.00 0.01 0.00 59 1029.5
20221208180720 52 338 9.0 12.0 0.00 0.01 0.00 59 1029.5
20221208180619 52 315 8.0 11.0 0.00 0.01 0.00 60 1029.6
20221208180519 52 338 4.0 10.0 0.00 0.01 0.00 61 1029.6
20221208180420 52 338 4.0 8.0 0.00 0.01 0.00 60 1029.6
20221208180320 52 23 6.0 12.0 0.00 0.01 0.00 60 1029.6
20221208180219 52 338 10.0 15.0 0.00 0.01 0.00 60 1029.7
20221208180121 52 0 8.0 11.0 0.00 0.01 0.00 60 1029.7
20221208180019 52 338 8.0 10.0 0.00 0.01 0.00 60 1029.7
20221208175919 52 338 4.0 9.0 0.00 0.01 0.00 61 1029.7
20221208175839 52 338 4.0 9.0 0.00 0.01 0.00 60 1029.7
20221208175719 52 0 6.0 11.0 0.00 0.01 0.00 60 1029.8
20221208175620 52 23 8.0 11.0 0.00 0.01 0.00 60 1029.8
20221208175540 52 338 9.0 13.0 0.00 0.01 0.00 60 1029.7
20221208175421 52 23 10.0 14.0 0.00 0.01 0.00 60 1029.7
20221208175320 52 0 7.0 10.0 0.00 0.01 0.00 60 1029.7
20221208175219 52 23 7.0 10.0 0.00 0.01 0.00 60 1029.7
20221208175139 52 23 7.0 11.0 0.00 0.01 0.00 60 1029.7
20221208175020 52 23 5.0 7.0 0.00 0.01 0.00 60 1029.7
20221208174919 52 0 6.0 9.0 0.00 0.01 0.00 60 1029.8
20221208174819 52 0 8.0 14.0 0.00 0.01 0.00 59 1029.7
20221208174739 52 0 8.0 14.0 0.00 0.01 0.00 60 1029.7
20221208174639 52 0 7.0 14.0 0.00 0.01 0.00 61 1029.7
20221208174520 52 45 5.0 8.0 0.00 0.01 0.00 61 1029.7
20221208174420 52 0 6.0 10.0 0.00 0.01 0.00 61 1029.7
20221208174320 52 0 5.0 9.0 0.00 0.01 0.00 60 1029.7
20221208174219 52 0 9.0 12.0 0.00 0.01 0.00 61 1029.7
20221208174120 52 338 8.0 15.0 0.00 0.01 0.00 62 1029.7
20221208174020 52 0 9.0 14.0 0.00 0.01 0.00 61 1029.6
20221208173939 52 338 13.0 19.0 0.00 0.01 0.00 62 1029.6
20221208173820 52 0 6.0 10.0 0.00 0.01 0.00 62 1029.7
20221208173740 52 23 4.0 4.0 0.00 0.01 0.00 62 1029.6
20221208173619 52 338 7.0 12.0 0.00 0.01 0.00 62 1029.8
20221208173521 52 338 8.0 12.0 0.00 0.01 0.00 61 1029.8
20221208173441 52 23 10.0 14.0 0.00 0.01 0.00 61 1029.8
20221208173319 52 338 7.0 12.0 0.00 0.01 0.00 61 1029.8
20221208173219 52 0 9.0 17.0 0.00 0.01 0.00 61 1029.9
20221208173139 52 0 7.0 17.0 0.00 0.01 0.00 62 1029.9
20221208173019 52 0 9.0 13.0 0.00 0.01 0.00 62 1029.9
20221208172919 52 338 7.0 14.0 0.00 0.01 0.00 61 1030.0
20221208172820 52 338 10.0 15.0 0.00 0.01 0.00 61 1029.9
20221208172719 52 315 7.0 12.0 0.00 0.01 0.00 61 1030.0
20221208172620 52 315 6.0 10.0 0.00 0.01 0.00 61 1030.0
20221208172521 52 293 7.0 11.0 0.00 0.01 0.00 61 1030.0
20221208172419 52 315 9.0 13.0 0.00 0.01 0.00 61 1030.0
20221208172320 52 315 8.0 14.0 0.00 0.01 0.00 62 1030.0
20221208172239 52 293 5.0 10.0 0.00 0.01 0.00 61 1030.0
20221208172119 52 315 7.0 10.0 0.00 0.01 0.00 62 1030.1
20221208172020 52 338 7.0 12.0 0.00 0.01 0.00 61 1030.1
20221208171819 52 23 8.0 12.0 0.00 0.01 0.00 61 1030.1
20221208171719 52 338 8.0 12.0 0.00 0.01 0.00 61 1030.1
20221208171640 52 338 9.0 16.0 0.00 0.01 0.00 62 1030.1
20221208171520 52 315 7.0 12.0 0.00 0.01 0.00 61 1030.1
20221208171419 52 315 8.0 12.0 0.00 0.01 0.00 61 1030.1
20221208171320 52 0 8.0 10.0 0.00 0.01 0.00 61 1030.1
20221208171219 52 315 8.0 11.0 0.00 0.01 0.00 61 1030.2
20221208171120 52 315 10.0 22.0 0.00 0.01 0.00 61 1030.0
20221208171019 52 315 14.0 22.0 0.00 0.01 0.00 61 1030.1
20221208170919 52 315 9.0 13.0 0.00 0.01 0.00 61 1030.1
20221208170839 52 338 10.0 15.0 0.00 0.01 0.00 61 1030.1
20221208170739 52 0 9.0 14.0 0.00 0.01 0.00 62 1030.1
20221208170620 52 315 7.0 11.0 0.00 0.01 0.00 61 1030.2
20221208170600 52 315 10.0 17.0 0.00 0.01 0.00 61 1030.3
20221208170420 52 315 9.0 11.0 0.00 0.01 0.00 61 1030.1
20221208170319 52 338 10.0 14.0 0.00 0.01 0.00 62 1030.2
20221208170221 52 0 7.0 11.0 0.00 0.01 0.00 61 1030.2
20221208170120 52 338 10.0 15.0 0.00 0.01 0.00 61 1030.1
20221208170039 52 0 9.0 13.0 0.00 0.01 0.00 62 1030.1
20221208165919 52 23 9.0 15.0 0.00 0.01 0.00 62 1030.2
20221208165820 52 0 6.0 13.0 0.00 0.01 0.00 61 1030.2
20221208165719 52 315 10.0 16.0 0.00 0.01 0.00 61 1030.4
20221208165619 52 315 8.0 12.0 0.00 0.02 0.00 61 1030.2
20221208165519 52 315 9.0 11.0 0.00 0.02 0.00 61 1030.2
20221208165419 52 315 6.0 10.0 0.00 0.02 0.00 61 1030.2
20221208165319 52 338 9.0 12.0 0.00 0.02 0.00 61 1030.2
20221208165219 52 338 11.0 13.0 0.00 0.02 0.00 61 1030.2
20221208165131 52 315 11.0 14.0 0.00 0.02 0.00 61 1030.1
20221208165019 52 0 10.0 15.0 0.00 0.02 0.00 62 1030.0
20221208164919 52 338 6.0 10.0 0.00 0.02 0.00 62 1030.0
20221208164819 52 0 5.0 9.0 0.00 0.02 0.00 61 1030.0
20221208164759 52 315 9.0 15.0 0.00 0.02 0.00 62 1030.1
20221208164619 52 0 8.0 15.0 0.00 0.02 0.00 62 1030.0
20221208164519 52 338 8.0 15.0 0.00 0.02 0.00 62 1030.1
20221208164419 52 338 7.0 15.0 0.00 0.02 0.00 62 1030.1
20221208164319 52 0 6.0 12.0 0.00 0.02 0.00 63 1030.1
20221208164219 52 0 8.0 12.0 0.00 0.02 0.00 63 1030.1
20221208164120 52 23 6.0 9.0 0.00 0.02 0.00 62 1030.1
20221208164019 52 0 6.0 10.0 0.00 0.02 0.00 62 1030.0
20221208163919 52 0 8.0 13.0 0.00 0.02 0.00 62 1030.0
20221208163819 52 338 10.0 13.0 0.00 0.02 0.00 62 1030.0
20221208163720 52 23 6.0 10.0 0.00 0.02 0.00 62 1029.9
20221208163639 52 315 5.0 10.0 0.00 0.02 0.00 62 1029.8
20221208163519 52 338 5.0 9.0 0.00 0.02 0.00 62 1029.8
20221208163419 52 0 8.0 12.0 0.00 0.02 0.00 62 1029.8
20221208163339 52 338 6.0 11.0 0.00 0.02 0.00 62 1029.8
20221208163220 52 338 8.0 11.0 0.00 0.02 0.00 63 1029.8
20221208163119 52 45 3.0 4.0 0.00 0.02 0.00 64 1029.9
20221208163019 52 315 5.0 10.0 0.00 0.02 0.00 63 1029.9
20221208162919 52 23 6.0 10.0 0.00 0.02 0.00 64 1029.9
20221208162819 52 0 4.0 8.0 0.00 0.02 0.00 64 1030.0
20221208162719 52 338 6.0 10.0 0.00 0.02 0.00 64 1030.0
20221208162620 52 23 5.0 7.0 0.00 0.02 0.00 63 1030.1
20221208162519 52 23 5.0 8.0 0.00 0.02 0.00 63 1030.1
20221208162439 52 0 5.0 11.0 0.00 0.02 0.00 63 1030.1
20221208162339 52 23 9.0 14.0 0.00 0.02 0.00 63 1030.2
20221208162220 51 23 7.0 10.0 0.00 0.02 0.00 64 1030.2
20221208162119 51 293 5.0 9.0 0.00 0.02 0.00 64 1030.2
20221208162039 51 23 3.0 6.0 0.00 0.02 0.00 63 1030.2
20221208161921 51 0 8.0 14.0 0.00 0.02 0.00 63 1030.3
20221208161819 51 0 5.0 13.0 0.00 0.02 0.00 64 1030.3
20221208161741 51 0 5.0 8.0 0.00 0.02 0.00 64 1030.3
20221208161619 51 23 3.0 5.0 0.00 0.02 0.00 64 1030.3
20221208161540 51 338 7.0 11.0 0.00 0.02 0.00 64 1030.3
20221208161421 51 338 9.0 12.0 0.00 0.02 0.00 64 1030.4
20221208161319 51 338 6.0 8.0 0.00 0.02 0.00 64 1030.3
20221208161239 51 68 5.0 8.0 0.00 0.02 0.00 64 1030.4
20221208161120 51 0 5.0 9.0 0.00 0.02 0.00 64 1030.4
20221208161019 51 0 6.0 11.0 0.00 0.02 0.00 65 1030.3
20221208160919 51 23 7.0 12.0 0.00 0.02 0.00 64 1030.3
20221208160819 51 0 6.0 11.0 0.00 0.02 0.00 64 1030.2
20221208160721 51 0 5.0 8.0 0.00 0.02 0.00 64 1030.1
20221208160619 51 0 3.0 8.0 0.00 0.02 0.00 64 1030.0
20221208160520 51 338 5.0 10.0 0.00 0.02 0.00 63 1030.1
20221208160419 51 315 11.0 17.0 0.00 0.02 0.00 64 1030.2
20221208160319 51 338 7.0 14.0 0.00 0.03 0.00 64 1030.2
20221208160220 51 338 9.0 14.0 0.00 0.03 0.00 64 1030.3
20221208160159 52 0 5.0 9.0 0.00 0.03 0.00 65 1030.3
20221208160019 51 23 5.0 12.0 0.00 0.03 0.00 65 1030.4
20221208155939 52 338 5.0 8.0 0.00 0.03 0.00 64 1030.4
20221208155820 52 45 3.0 9.0 0.00 0.03 0.00 64 1030.4
20221208155719 52 23 7.0 13.0 0.00 0.03 0.00 64 1030.4
20221208155619 52 23 6.0 12.0 0.00 0.03 0.00 64 1030.4
20221208155520 51 0 9.0 11.0 0.00 0.03 0.00 64 1030.5
20221208155419 51 23 9.0 15.0 0.00 0.03 0.00 65 1030.5
20221208155319 51 23 7.0 13.0 0.00 0.03 0.00 65 1030.5
20221208155259 51 23 8.0 13.0 0.00 0.03 0.00 65 1030.5
20221208155119 51 293 6.0 12.0 0.00 0.03 0.00 65 1030.5
20221208155019 51 315 7.0 12.0 0.00 0.03 0.00 65 1030.5
20221208154919 51 338 7.0 10.0 0.00 0.03 0.00 65 1030.5
20221208154840 51 338 7.0 15.0 0.00 0.03 0.00 65 1030.7
20221208154619 51 23 6.0 10.0 0.00 0.03 0.00 65 1030.6
20221208154520 51 338 10.0 14.0 0.00 0.03 0.00 65 1030.6
20221208154419 51 0 9.0 14.0 0.00 0.03 0.00 65 1030.6
20221208154339 51 0 10.0 14.0 0.00 0.03 0.00 65 1030.6
20221208154219 51 0 10.0 17.0 0.00 0.03 0.00 65 1030.5
20221208154120 51 0 10.0 16.0 0.00 0.03 0.00 66 1030.6
20221208154019 51 315 9.0 15.0 0.00 0.03 0.00 66 1030.5
20221208153919 51 0 9.0 13.0 0.00 0.03 0.00 65 1030.5
20221208153819 51 338 9.0 14.0 0.00 0.03 0.00 66 1030.5
20221208153719 51 338 9.0 17.0 0.00 0.03 0.00 66 1030.6
20221208153659 51 338 10.0 18.0 0.00 0.03 0.00 67 1030.7
20221208153559 51 315 8.0 14.0 0.00 0.03 0.00 67 1030.8
20221208153419 51 338 8.0 11.0 0.00 0.03 0.00 67 1030.8
20221208153319 51 315 6.0 9.0 0.00 0.03 0.00 67 1030.8
20221208153219 51 315 8.0 13.0 0.00 0.03 0.00 68 1031.0
20221208153121 51 315 6.0 9.0 0.00 0.03 0.00 68 1031.0
20221208153019 51 315 10.0 15.0 0.00 0.03 0.00 68 1031.0
20221208152919 51 338 4.0 6.0 0.00 0.03 0.00 68 1030.9
20221208152859 51 23 3.0 6.0 0.00 0.03 0.00 68 1030.9
20221208152719 51 293 4.0 8.0 0.00 0.03 0.00 68 1031.0
20221208152619 51 315 6.0 9.0 0.00 0.03 0.00 68 1031.0
20221208152539 51 0 7.0 11.0 0.00 0.03 0.00 68 1030.9
20221208152419 51 338 8.0 13.0 0.00 0.03 0.00 68 1031.0
20221208152319 51 315 7.0 10.0 0.00 0.03 0.00 68 1031.1
20221208152239 51 0 10.0 13.0 0.00 0.03 0.00 67 1031.1
20221208152119 51 315 10.0 16.0 0.00 0.03 0.00 67 1031.2
20221208152020 51 23 10.0 15.0 0.00 0.03 0.00 68 1031.3
20221208151939 51 338 5.0 10.0 0.00 0.03 0.00 69 1031.2
20221208151819 50 23 4.0 8.0 0.00 0.03 0.00 69 1031.2
20221208151719 50 338 7.0 9.0 0.00 0.03 0.00 69 1031.2
20221208151619 50 315 7.0 10.0 0.00 0.03 0.00 68 1031.2
20221208151539 50 338 10.0 13.0 0.00 0.03 0.00 68 1031.3
20221208151439 50 338 8.0 12.0 0.00 0.03 0.00 69 1031.2
20221208151319 50 338 5.0 8.0 0.00 0.04 0.00 69 1031.1
20221208151219 50 0 9.0 14.0 0.00 0.04 0.00 69 1031.1
20221208151139 50 315 10.0 15.0 0.00 0.04 0.00 68 1031.1
20221208151020 50 0 6.0 11.0 0.00 0.04 0.00 68 1031.1
20221208150921 50 0 8.0 10.0 0.00 0.04 0.00 69 1031.1
20221208150819 50 23 10.0 20.0 0.00 0.04 0.00 68 1031.1
20221208150719 50 315 8.0 11.0 0.00 0.04 0.00 68 1031.1
20221208150619 50 23 8.0 14.0 0.00 0.04 0.00 69 1031.2
20221208150519 50 0 9.0 14.0 0.00 0.04 0.00 69 1031.3
20221208150419 50 315 4.0 9.0 0.00 0.04 0.00 69 1031.3
20221208150339 50 315 9.0 14.0 0.00 0.04 0.00 69 1031.4
20221208150220 50 338 5.0 10.0 0.00 0.04 0.00 69 1031.4
20221208150159 50 338 9.0 14.0 0.00 0.04 0.00 70 1031.4
20221208150019 50 293 5.0 8.0 0.00 0.04 0.00 70 1031.3
20221208145919 50 0 5.0 8.0 0.00 0.04 0.00 69 1031.3
20221208145819 50 0 7.0 10.0 0.00 0.04 0.00 70 1031.3
20221208145719 50 338 8.0 11.0 0.00 0.04 0.00 69 1031.2
20221208145619 50 0 8.0 13.0 0.00 0.04 0.00 70 1031.3
20221208145539 50 0 7.0 12.0 0.00 0.04 0.00 70 1031.4
20221208145420 50 338 8.0 12.0 0.00 0.04 0.00 70 1031.3
20221208145319 50 0 11.0 15.0 0.00 0.04 0.00 70 1031.3
20221208145239 50 293 8.0 11.0 0.00 0.04 0.00 70 1031.3
20221208145119 50 0 5.0 8.0 0.00 0.04 0.00 70 1031.3
20221208145020 50 0 4.0 11.0 0.00 0.04 0.00 70 1031.3
20221208144919 50 0 6.0 10.0 0.00 0.04 0.00 70 1031.3
20221208144819 50 338 9.0 13.0 0.00 0.04 0.00 70 1031.3
20221208144739 50 0 8.0 14.0 0.00 0.04 0.00 70 1031.2
20221208144620 50 23 5.0 12.0 0.00 0.04 0.00 71 1031.2
20221208144520 50 23 7.0 11.0 0.00 0.04 0.00 71 1031.3
20221208144419 50 338 6.0 9.0 0.00 0.04 0.00 70 1031.3
20221208144339 50 23 9.0 16.0 0.00 0.04 0.00 71 1031.3
20221208144219 50 338 7.0 12.0 0.00 0.04 0.00 72 1031.3
20221208144119 50 45 3.0 7.0 0.00 0.04 0.00 72 1031.3
20221208144019 50 338 5.0 8.0 0.00 0.04 0.00 72 1031.2
20221208143919 50 0 5.0 10.0 0.00 0.04 0.00 71 1031.2
20221208143839 50 315 3.0 6.0 0.00 0.04 0.00 71 1031.2
20221208143719 50 0 5.0 6.0 0.00 0.04 0.00 71 1031.1
20221208143619 50 0 10.0 16.0 0.00 0.04 0.00 71 1031.1
20221208143519 50 315 7.0 13.0 0.00 0.04 0.00 72 1031.2
20221208143419 50 0 5.0 11.0 0.00 0.04 0.00 72 1031.3
20221208143319 50 338 7.0 11.0 0.00 0.04 0.00 71 1031.3
20221208143219 50 338 7.0 10.0 0.00 0.04 0.00 71 1031.3
20221208143119 49 0 9.0 13.0 0.00 0.04 0.00 71 1031.2
20221208143019 49 0 10.0 15.0 0.00 0.04 0.00 72 1031.3
20221208142939 49 315 5.0 10.0 0.00 0.04 0.00 72 1031.3
20221208142819 49 23 6.0 10.0 0.00 0.04 0.00 72 1031.2
20221208142719 49 338 8.0 12.0 0.00 0.04 0.00 72 1031.2
20221208142659 49 0 5.0 10.0 0.00 0.04 0.00 72 1031.2
20221208142519 49 23 7.0 10.0 0.00 0.05 0.00 72 1031.2
20221208142431 49 0 7.0 11.0 0.00 0.05 0.00 72 1031.2
20221208142319 49 0 9.0 12.0 0.00 0.05 0.00 72 1031.2
20221208142219 49 0 10.0 19.0 0.00 0.05 0.00 72 1031.2
20221208142119 49 0 11.0 16.0 0.00 0.05 0.00 72 1031.1
20221208142020 49 338 10.0 19.0 0.00 0.05 0.00 72 1031.2
20221208141959 49 0 11.0 15.0 0.00 0.05 0.00 72 1031.1
20221208141819 49 23 12.0 15.0 0.00 0.05 0.00 73 1031.0
20221208141719 49 23 8.0 13.0 0.00 0.05 0.00 73 1031.1
20221208141619 49 0 6.0 8.0 0.00 0.05 0.00 73 1031.1
20221208141519 49 0 7.0 12.0 0.00 0.05 0.00 73 1031.1
20221208141418 49 0 7.0 11.0 0.00 0.05 0.00 73 1031.1
20221208141319 49 338 11.0 15.0 0.00 0.05 0.00 73 1031.2
20221208141219 49 315 9.0 13.0 0.00 0.05 0.00 73 1031.2
20221208141119 49 338 8.0 15.0 0.00 0.05 0.00 74 1031.2
20221208141019 49 315 5.0 8.0 0.00 0.05 0.00 74 1031.2
20221208140919 49 315 8.0 21.0 0.00 0.05 0.00 74 1031.1
20221208140839 49 338 9.0 14.0 0.00 0.05 0.00 74 1031.1
20221208140719 49 315 9.0 17.0 0.00 0.05 0.00 75 1031.1
20221208140619 49 338 8.0 12.0 0.00 0.05 0.00 75 1031.0
20221208140519 49 270 4.0 8.0 0.00 0.05 0.00 75 1030.9
20221208140439 48 0 6.0 10.0 0.00 0.06 0.00 75 1030.8
20221208140319 48 0 3.0 6.0 0.00 0.06 0.00 75 1030.8
20221208140218 48 23 4.0 9.0 0.00 0.06 0.00 74 1030.8
20221208140119 48 0 7.0 10.0 0.00 0.06 0.00 74 1030.7
20221208140039 48 315 6.0 12.0 0.00 0.06 0.00 74 1030.8
20221208135919 48 338 11.0 14.0 0.00 0.06 0.00 75 1030.8
20221208135839 48 338 9.0 15.0 0.00 0.06 0.00 75 1030.9
20221208135740 48 0 6.0 12.0 0.00 0.06 0.00 75 1030.9
20221208135639 48 315 5.0 9.0 0.00 0.06 0.00 75 1030.9
20221208135519 48 293 7.0 13.0 0.00 0.06 0.00 75 1030.8
20221208135419 48 315 4.0 8.0 0.00 0.06 0.00 75 1030.9
20221208135319 48 315 7.0 9.0 0.00 0.06 0.00 75 1030.8
20221208135220 48 315 7.0 11.0 0.00 0.06 0.00 75 1030.8
20221208135139 48 338 10.0 14.0 0.00 0.06 0.00 75 1030.8
20221208135041 48 338 6.0 9.0 0.00 0.06 0.00 75 1030.8
20221208134919 48 315 8.0 12.0 0.00 0.06 0.00 75 1030.8
20221208134819 48 315 6.0 8.0 0.00 0.06 0.00 75 1030.9
20221208134719 48 315 9.0 13.0 0.00 0.06 0.00 75 1030.8
20221208134619 48 293 8.0 16.0 0.00 0.06 0.00 75 1030.8
20221208134519 48 0 6.0 10.0 0.00 0.06 0.00 75 1030.9
20221208134419 48 338 3.0 6.0 0.00 0.06 0.00 75 1030.8
20221208134320 48 338 5.0 6.0 0.00 0.07 0.00 75 1030.9
20221208134219 48 0 7.0 11.0 0.00 0.07 0.00 75 1030.9
20221208134119 48 23 4.0 9.0 0.00 0.07 0.00 75 1030.9
20221208134039 48 23 7.0 10.0 0.00 0.07 0.00 75 1030.9
20221208133919 48 0 6.0 9.0 0.00 0.07 0.00 75 1030.9
20221208133819 48 338 6.0 8.0 0.00 0.07 0.00 75 1031.0
20221208133719 48 338 8.0 12.0 0.00 0.07 0.00 75 1031.0
20221208133620 48 338 6.0 9.0 0.00 0.07 0.00 75 1031.0
20221208133521 48 0 9.0 12.0 0.00 0.07 0.00 76 1031.0
20221208133422 48 338 6.0 10.0 0.00 0.08 0.00 76 1031.0
20221208133319 48 0 5.0 10.0 0.00 0.09 0.00 76 1031.0
20221208133221 48 315 3.0 4.0 0.00 0.10 0.00 76 1031.0
20221208133119 48 315 9.0 15.0 0.00 0.11 0.00 76 1031.0
20221208133019 48 0 7.0 11.0 0.00 0.11 0.00 76 1031.1
20221208132919 48 0 5.0 9.0 0.00 0.12 0.00 76 1031.0
20221208132818 48 315 8.0 11.0 0.00 0.12 0.00 76 1031.1
20221208132720 48 338 7.0 10.0 0.00 0.13 0.00 76 1031.0
20221208132619 48 0 9.0 14.0 0.00 0.13 0.00 76 1030.9
20221208132518 48 338 7.0 11.0 0.00 0.14 0.00 76 1030.9
20221208132418 48 338 6.0 10.0 0.00 0.14 0.00 76 1030.9
20221208132321 48 23 5.0 9.0 0.00 0.14 0.00 76 1031.0
20221208132221 48 338 3.0 8.0 0.00 0.14 0.00 76 1030.9
20221208132119 48 315 7.0 11.0 0.00 0.14 0.00 76 1030.9
20221208132019 48 338 4.0 5.0 0.00 0.14 0.00 76 1030.8
20221208131919 48 0 8.0 11.0 0.00 0.14 0.00 76 1030.9
20221208131819 48 0 7.0 10.0 0.00 0.14 0.00 76 1030.8
20221208131719 48 315 8.0 12.0 0.00 0.14 0.00 76 1030.8
20221208131619 48 338 9.0 16.0 0.00 0.14 0.00 76 1030.8
20221208131519 48 23 7.0 12.0 0.00 0.14 0.00 76 1030.9
20221208131419 48 338 8.0 13.0 0.00 0.14 0.00 76 1030.8
20221208131318 48 338 5.0 9.0 0.00 0.14 0.00 76 1030.8
20221208131221 48 0 3.0 4.0 0.00 0.14 0.00 76 1030.8
20221208131141 48 338 5.0 8.0 0.00 0.14 0.00 76 1030.8
20221208131021 48 0 5.0 8.0 0.00 0.14 0.00 76 1030.8
20221208130919 48 0 5.0 8.0 0.00 0.14 0.00 76 1030.8
20221208130819 48 0 9.0 13.0 0.00 0.15 0.00 77 1030.9
20221208130719 48 338 4.0 6.0 0.00 0.15 0.00 77 1030.8
20221208130619 48 338 6.0 11.0 0.00 0.15 0.00 77 1030.9
20221208130519 48 0 6.0 11.0 0.00 0.15 0.00 77 1030.8
20221208130440 48 23 10.0 13.0 0.00 0.15 0.00 77 1030.8
20221208130319 48 338 7.0 11.0 0.00 0.15 0.00 77 1030.8
20221208130219 48 23 7.0 10.0 0.00 0.15 0.00 77 1030.8
20221208130121 48 0 5.0 9.0 0.00 0.15 0.00 77 1030.7
20221208130021 48 0 6.0 11.0 0.00 0.15 0.00 77 1030.7
20221208125941 47 338 11.0 15.0 0.00 0.15 0.00 77 1030.6
20221208125819 47 0 6.0 9.0 0.00 0.15 0.00 77 1030.8
20221208125719 47 338 8.0 11.0 0.00 0.15 0.00 77 1030.7
20221208125619 47 0 7.0 14.0 0.00 0.15 0.00 77 1030.6
20221208125539 47 0 10.0 17.0 0.00 0.15 0.00 77 1030.6
20221208125419 47 23 4.0 9.0 0.00 0.15 0.00 77 1030.6
20221208125319 47 23 6.0 13.0 0.00 0.15 0.00 77 1030.6
20221208125219 47 315 9.0 13.0 0.00 0.15 0.00 78 1030.7
20221208125121 47 23 8.0 12.0 0.00 0.15 0.00 78 1030.6
20221208125041 47 0 10.0 14.0 0.00 0.15 0.00 78 1030.6
20221208124921 47 0 10.0 14.0 0.00 0.15 0.00 78 1030.5
20221208124821 47 45 5.0 10.0 0.00 0.15 0.00 78 1030.6
20221208124721 47 0 8.0 14.0 0.00 0.15 0.00 78 1030.5
20221208124619 47 0 5.0 9.0 0.00 0.15 0.00 79 1030.5
20221208124519 47 0 7.0 13.0 0.00 0.15 0.00 79 1030.4
20221208124419 47 0 8.0 11.0 0.00 0.15 0.00 79 1030.5
20221208124339 47 0 6.0 9.0 0.00 0.15 0.00 79 1030.4
20221208124220 47 338 7.0 10.0 0.00 0.15 0.00 79 1030.4
20221208124119 47 0 9.0 13.0 0.00 0.15 0.00 80 1030.5
20221208124021 47 315 8.0 13.0 0.00 0.15 0.00 80 1030.4
20221208123941 47 68 5.0 9.0 0.00 0.15 0.00 80 1030.3
20221208123821 47 338 8.0 13.0 0.00 0.15 0.00 80 1030.2
20221208123720 47 45 3.0 6.0 0.00 0.15 0.00 80 1030.3
20221208123620 47 68 1.0 2.0 0.00 0.15 0.00 80 1030.2
20221208123520 47 338 6.0 11.0 0.00 0.15 0.00 80 1030.2
20221208123419 47 315 5.0 6.0 0.00 0.15 0.00 80 1030.3
20221208123318 47 23 7.0 13.0 0.00 0.15 0.00 80 1030.2
20221208123218 47 0 6.0 11.0 0.00 0.15 0.00 80 1030.2
20221208123119 47 23 6.0 10.0 0.00 0.15 0.00 80 1030.2
20221208123022 47 0 7.0 10.0 0.00 0.15 0.00 81 1030.2
20221208122921 47 0 7.0 9.0 0.00 0.15 0.00 81 1030.2
20221208122841 47 338 5.0 8.0 0.00 0.15 0.00 81 1030.1
20221208122720 47 338 7.0 10.0 0.00 0.15 0.00 81 1030.2
20221208122620 47 0 8.0 12.0 0.00 0.15 0.00 81 1030.2
20221208122520 47 23 9.0 13.0 0.00 0.16 0.00 81 1030.3
20221208122419 47 0 7.0 15.0 0.00 0.16 0.00 81 1030.2
20221208122359 47 23 6.0 10.0 0.00 0.16 0.00 81 1030.2
20221208122219 47 23 3.0 4.0 0.00 0.16 0.00 81 1030.2
20221208122119 47 338 5.0 10.0 0.00 0.16 0.00 81 1030.2
20221208122039 47 0 9.0 12.0 0.00 0.16 0.00 81 1030.2
20221208121942 47 0 8.0 12.0 0.00 0.16 0.00 81 1030.2
20221208121821 47 68 4.0 9.0 0.00 0.16 0.00 81 1030.1
20221208121720 47 315 7.0 15.0 0.00 0.16 0.00 81 1030.0
20221208121620 47 338 9.0 16.0 0.00 0.16 0.00 81 1030.0
20221208121520 47 315 5.0 10.0 0.00 0.16 0.00 81 1029.9
20221208121420 47 23 5.0 9.0 0.00 0.16 0.00 81 1029.9
20221208121320 47 23 6.0 12.0 0.00 0.16 0.00 81 1029.8
20221208121220 47 0 7.0 15.0 0.00 0.16 0.00 81 1029.9
20221208121120 47 0 5.0 9.0 0.00 0.16 0.00 81 1029.9
20221208121019 47 23 7.0 12.0 0.00 0.16 0.00 81 1029.8
20221208120919 47 0 7.0 13.0 0.00 0.16 0.00 81 1029.9
20221208120819 47 0 6.0 14.0 0.00 0.17 0.00 81 1029.9
20221208120721 47 338 7.0 13.0 0.00 0.17 0.00 81 1029.9
20221208120621 47 338 4.0 10.0 0.00 0.17 0.00 82 1029.9
20221208120520 47 0 6.0 9.0 0.00 0.17 0.00 82 1030.0
20221208120420 47 0 6.0 10.0 0.00 0.17 0.00 82 1030.0
20221208120321 47 23 7.0 13.0 0.00 0.17 0.00 82 1030.0
20221208120220 47 338 8.0 18.0 0.00 0.17 0.00 82 1030.0
20221208120119 47 0 7.0 10.0 0.00 0.17 0.00 82 1030.0
20221208120040 47 338 8.0 16.0 0.00 0.18 0.00 82 1030.0
20221208115939 47 23 6.0 10.0 0.00 0.18 0.00 82 1030.0
20221208115819 47 23 4.0 6.0 0.00 0.18 0.00 82 1029.9
20221208115739 47 338 6.0 11.0 0.00 0.18 0.00 82 1029.8
20221208115641 47 0 5.0 11.0 0.00 0.18 0.00 82 1029.8
20221208115521 47 315 7.0 11.0 0.00 0.18 0.00 82 1029.8
20221208115420 47 338 8.0 11.0 0.00 0.19 0.00 83 1029.8
20221208115340 47 0 8.0 14.0 0.00 0.19 0.00 83 1029.7
20221208115222 47 0 7.0 12.0 0.00 0.19 0.00 82 1029.6
20221208115120 47 315 5.0 6.0 0.00 0.20 0.00 82 1029.6
20221208115020 47 23 6.0 10.0 0.00 0.20 0.00 82 1029.6
20221208114920 47 0 5.0 8.0 0.00 0.20 0.00 82 1029.6
20221208114819 47 0 6.0 11.0 0.00 0.20 0.00 82 1029.6
20221208114719 47 0 3.0 7.0 0.00 0.20 0.00 82 1029.6
20221208114641 47 0 3.0 6.0 0.00 0.20 0.00 83 1029.6
20221208114521 47 68 3.0 6.0 0.00 0.20 0.00 83 1029.6
20221208114421 47 23 3.0 7.0 0.00 0.20 0.00 83 1029.6
20221208114340 47 0 6.0 11.0 0.00 0.20 0.00 83 1029.7
20221208114241 47 23 6.0 9.0 0.00 0.20 0.00 83 1029.7
20221208114120 47 0 6.0 11.0 0.00 0.20 0.00 83 1029.6
20221208114102 47 338 4.0 6.0 0.00 0.20 0.00 83 1029.7
20221208113920 47 338 4.0 8.0 0.00 0.20 0.00 83 1029.6
20221208113840 47 23 3.0 5.0 0.00 0.20 0.00 83 1029.7
20221208113718 47 315 6.0 9.0 0.00 0.20 0.00 82 1029.6
20221208113619 47 338 3.0 7.0 0.00 0.20 0.00 83 1029.7
20221208113521 47 0 4.0 7.0 0.00 0.20 0.00 83 1029.7
20221208113422 47 45 3.0 4.0 0.00 0.20 0.00 83 1029.7
20221208113321 47 0 4.0 10.0 0.00 0.20 0.00 83 1029.7
20221208113301 47 315 3.0 6.0 0.00 0.20 0.00 83 1029.7
20221208113140 47 315 8.0 13.0 0.00 0.20 0.00 83 1029.6
20221208113020 47 23 7.0 10.0 0.00 0.21 0.00 83 1029.7
20221208112920 47 0 4.0 8.0 0.00 0.21 0.00 83 1029.6
20221208112821 48 23 2.0 4.0 0.00 0.21 0.00 83 1029.6
20221208112720 48 293 5.0 10.0 0.00 0.21 0.00 83 1029.6
20221208112640 48 0 5.0 9.0 0.00 0.21 0.00 83 1029.6
20221208112519 48 0 7.0 11.0 0.00 0.21 0.00 83 1029.6
20221208112439 48 23 6.0 8.0 0.00 0.22 0.00 83 1029.6
20221208112320 48 23 3.0 5.0 0.00 0.22 0.00 83 1029.6
20221208112221 48 0 5.0 9.0 0.00 0.22 0.00 83 1029.6
20221208112121 48 0 8.0 13.0 0.00 0.22 0.00 83 1029.7
20221208112041 48 338 5.0 12.0 0.00 0.22 0.00 83 1029.7
20221208111921 48 45 5.0 8.0 0.00 0.23 0.00 83 1029.7
20221208111820 48 0 3.0 7.0 0.00 0.23 0.00 83 1029.7
20221208111722 48 45 2.0 5.0 0.00 0.23 0.00 83 1029.7
20221208111620 48 0 5.0 8.0 0.00 0.23 0.00 83 1029.7
20221208111520 48 0 4.0 8.0 0.00 0.23 0.00 83 1029.7
20221208111420 48 338 2.0 4.0 0.00 0.23 0.00 83 1029.6
20221208111321 48 338 1.0 2.0 0.00 0.23 0.00 83 1029.6
20221208111221 48 0 3.0 6.0 0.00 0.24 0.00 83 1029.6
20221208111120 48 23 5.0 8.0 0.00 0.24 0.00 83 1029.6
20221208111020 48 338 2.0 5.0 0.00 0.24 0.00 83 1029.5
20221208110920 48 338 2.0 3.0 0.00 0.24 0.00 83 1029.5
20221208110820 48 0 1.0 2.0 0.00 0.24 0.00 83 1029.5
20221208110720 48 0 2.0 3.0 0.00 0.24 0.00 83 1029.5
20221208110621 48 23 2.0 4.0 0.00 0.25 0.00 83 1029.5
20221208110521 48 338 3.0 9.0 0.00 0.25 0.00 83 1029.5
20221208110420 48 338 7.0 10.0 0.00 0.25 0.00 83 1029.5
20221208110320 48 90 2.0 4.0 0.00 0.25 0.00 83 1029.4
20221208110221 48 90 2.0 4.0 0.00 0.25 0.00 83 1029.4
20221208110121 48 0 2.0 3.0 0.00 0.25 0.00 83 1029.4
20221208110021 48 338 1.0 3.0 0.00 0.26 0.00 83 1029.4
20221208105920 48 338 5.0 9.0 0.00 0.26 0.00 84 1029.3
20221208105820 48 23 6.0 12.0 0.00 0.26 0.00 84 1029.3
20221208105720 48 0 1.0 3.0 0.00 0.26 0.00 83 1029.3
20221208105620 48 0 2.0 5.0 0.00 0.26 0.00 84 1029.2
20221208105542 48 0 4.0 6.0 0.00 0.26 0.00 84 1029.2
20221208105420 48 315 3.0 7.0 0.00 0.26 0.00 84 1029.2
20221208105339 48 23 7.0 13.0 0.00 0.26 0.00 84 1029.2
20221208105221 48 338 7.0 10.0 0.00 0.26 0.00 84 1029.1
20221208105120 48 45 3.0 10.0 0.00 0.27 0.00 84 1029.1
20221208105020 48 0 4.0 6.0 0.00 0.27 0.00 84 1029.1
20221208104920 48 315 5.0 8.0 0.00 0.27 0.00 84 1029.1
20221208104840 48 0 5.0 10.0 0.00 0.27 0.00 84 1029.1
20221208104720 48 315 6.0 11.0 0.00 0.27 0.00 84 1029.1
20221208104642 48 23 3.0 7.0 0.00 0.28 0.00 84 1029.1
20221208104520 48 315 1.0 4.0 0.00 0.28 0.00 84 1029.1
20221208104420 48 293 3.0 4.0 0.00 0.28 0.00 84 1029.1
20221208104320 48 315 2.0 3.0 0.00 0.28 0.00 84 1029.1
20221208104220 48 0 1.0 3.0 0.00 0.28 0.00 84 1029.1
20221208104120 48 0 3.0 6.0 0.00 0.28 0.00 84 1029.1
20221208104042 48 23 5.0 10.0 0.00 0.28 0.00 84 1029.0
20221208104022 48 315 6.0 9.0 0.00 0.29 0.00 84 1029.1
20221208103820 48 0 3.0 4.0 0.00 0.29 0.00 84 1029.1
20221208103740 48 315 4.0 5.0 0.00 0.29 0.00 84 1029.1
20221208103620 48 338 3.0 4.0 0.00 0.29 0.00 84 1029.1
20221208103520 48 315 3.0 4.0 0.00 0.30 0.00 84 1029.0
20221208103441 48 0 3.0 6.0 0.00 0.30 0.00 84 1029.1
20221208103321 48 0 2.0 3.0 0.00 0.30 0.00 84 1029.1
20221208103220 48 315 3.0 6.0 0.00 0.30 0.00 84 1029.1
20221208103120 48 338 4.0 6.0 0.00 0.30 0.00 84 1029.1
20221208103020 48 315 3.0 6.0 0.00 0.31 0.00 84 1029.0
20221208102921 48 0 3.0 4.0 0.00 0.31 0.00 84 1029.1
20221208102840 48 0 2.0 4.0 0.00 0.32 0.00 84 1029.1
20221208102721 48 338 3.0 5.0 0.00 0.32 0.00 84 1029.1
20221208102641 48 0 3.0 5.0 0.00 0.32 0.00 84 1029.1
20221208102521 48 0 2.0 3.0 0.00 0.32 0.00 84 1029.0
20221208102422 48 338 2.0 4.0 0.00 0.32 0.00 84 1029.0
20221208102320 48 338 2.0 3.0 0.00 0.32 0.00 84 1029.0
20221208102220 48 0.0 1.0 0.00 0.33 0.00 84 1029.0
20221208102120 48 338 1.0 2.0 0.00 0.33 0.00 84 1028.9
20221208102021 48 338 1.0 2.0 0.00 0.33 0.00 84 1028.9
20221208101920 48 338 3.0 4.0 0.00 0.34 0.00 84 1028.9
20221208101840 48 0 3.0 5.0 0.00 0.34 0.00 84 1028.9
20221208101720 48 0.0 2.0 0.00 0.34 0.00 84 1028.9
20221208101620 48 338 2.0 2.0 0.00 0.35 0.00 84 1028.9
20221208101522 48 293 2.0 3.0 0.00 0.35 0.00 83 1028.8
20221208101421 48 338 2.0 3.0 0.00 0.35 0.00 83 1028.8
20221208101402 49 338 2.0 3.0 0.00 0.36 0.00 84 1028.8
20221208101220 49 315 1.0 2.0 0.00 0.36 0.00 84 1028.7
20221208101120 49 315 2.0 3.0 0.00 0.37 0.00 83 1028.8
20221208101020 49 293 1.0 2.0 0.00 0.37 0.00 83 1028.7
20221208100920 49 293 1.0 2.0 0.00 0.38 0.00 83 1028.7
20221208100820 49 293 2.0 3.0 0.00 0.38 0.00 83 1028.7
20221208100720 49 293 4.0 10.0 0.00 0.39 0.00 83 1028.7
20221208100640 49 338 2.0 4.0 0.00 0.39 0.00 83 1028.6
20221208100520 49 23 1.0 1.0 0.00 0.40 0.00 83 1028.6
20221208100438 49 30 2.0 0.0 0.00 0.40 0.00 83 1028.5
20221208100320 49 23 1.0 2.0 0.00 0.40 0.00 83 1028.5
20221208100220 49 23 1.0 2.0 0.00 0.40 0.00 83 1028.5
20221208100020 49 315 2.0 3.0 0.00 0.41 0.00 83 1028.5
20221208095920 49 338 1.0 3.0 0.00 0.41 0.00 83 1028.5
20221208095820 49 23 3.0 4.0 0.00 0.41 0.00 83 1028.4
20221208095800 49 338 3.0 5.0 0.00 0.42 0.00 83 1028.4
20221208095620 49 338 2.0 4.0 0.00 0.42 0.00 83 1028.4
20221208095520 49 315 4.0 6.0 0.00 0.42 0.00 83 1028.4
20221208095420 49 338 3.0 8.0 0.00 0.43 0.00 83 1028.5
20221208095320 49 0 3.0 5.0 0.00 0.43 0.00 82 1028.4
20221208095220 49 0 1.0 5.0 0.00 0.44 0.00 82 1028.5
20221208095120 49 0 1.0 3.0 0.00 0.44 0.00 82 1028.5
20221208095020 49 0 2.0 4.0 0.00 0.44 0.00 82 1028.5
20221208094921 49 315 2.0 4.0 0.00 0.44 0.00 82 1028.5
20221208094820 50 23 4.0 5.0 0.00 0.45 0.00 82 1028.4
20221208094720 50 0 4.0 8.0 0.00 0.45 0.00 82 1028.4
20221208094620 50 338 3.0 4.0 0.00 0.45 0.00 82 1028.4
20221208094520 50 315 3.0 6.0 0.00 0.45 0.00 82 1028.4
20221208094420 50 338 4.0 5.0 0.00 0.45 0.00 82 1028.4
20221208094340 50 0 4.0 9.0 0.00 0.46 0.00 82 1028.4
20221208094300 50 315 2.0 3.0 0.00 0.46 0.00 82 1028.4
20221208094120 50 315 3.0 5.0 0.00 0.46 0.00 82 1028.4
20221208094020 50 293 7.0 11.0 0.00 0.46 0.00 82 1028.4
20221208093921 50 315 5.0 8.0 0.00 0.47 0.00 81 1028.4
20221208093837 50 315 3.0 4.0 0.00 0.47 0.00 81 1028.4
20221208093815 50 0.0 0.0 0.00 0.47 0.00 82 1028.4
20221208093620 50 284 3.0 0.0 0.00 0.48 0.00 82 1028.3
20221208093519 50 284 3.0 0.0 0.00 0.48 0.00 82 1028.3
20221208093440 50 315 3.0 4.0 0.00 0.48 0.00 82 1028.4
20221208093320 50 315 4.0 7.0 0.00 0.49 0.00 82 1028.4
20221208093220 50 293 7.0 14.0 0.00 0.49 0.00 82 1028.3
20221208093120 50 315 7.0 12.0 0.00 0.49 0.00 82 1028.4
20221208093021 50 315 5.0 9.0 0.00 0.50 0.00 82 1028.4
20221208092921 50 315 3.0 4.0 0.00 0.50 0.00 82 1028.4
20221208092820 50 0 4.0 5.0 0.00 0.50 0.00 81 1028.4
20221208092740 50 315 4.0 5.0 0.00 0.51 0.00 81 1028.3
20221208092621 50 315 6.0 11.0 0.00 0.51 0.00 81 1028.3
20221208092520 50 315 4.0 6.0 0.00 0.51 0.00 81 1028.2
20221208092418 50 315 7.0 11.0 0.00 0.51 0.00 81 1028.3
20221208092320 50 0 5.0 13.0 0.00 0.51 0.00 81 1028.3
20221208092220 50 338 6.0 10.0 0.00 0.52 0.00 81 1028.2
20221208092121 50 270 4.0 8.0 0.00 0.52 0.00 81 1028.2
20221208092020 50 338 7.0 10.0 0.00 0.52 0.00 81 1028.2
20221208091920 50 293 8.0 11.0 0.00 0.53 0.00 81 1028.2
20221208091840 50 315 10.0 13.0 0.00 0.53 0.00 81 1028.1
20221208091740 51 338 6.0 10.0 0.00 0.53 0.00 81 1028.2
20221208091621 51 293 5.0 9.0 0.00 0.53 0.00 81 1028.2
20221208091540 51 293 6.0 10.0 0.00 0.53 0.00 81 1028.0
20221208091501 51 0 7.0 11.0 0.00 0.54 0.00 81 1028.0
20221208091320 51 293 9.0 14.0 0.00 0.54 0.00 81 1028.0
20221208091220 51 315 9.0 15.0 0.00 0.54 0.00 81 1028.0
20221208091140 51 338 8.0 14.0 0.00 0.54 0.00 81 1028.0
20221208091021 51 315 7.0 14.0 0.00 0.54 0.00 82 1028.1
20221208090920 51 338 9.0 13.0 0.00 0.54 0.00 82 1028.1
20221208090821 51 315 10.0 17.0 0.00 0.54 0.00 82 1028.1
20221208090720 51 315 8.0 12.0 0.00 0.55 0.00 81 1028.1
20221208090641 51 293 9.0 13.0 0.00 0.55 0.00 82 1028.0
20221208090520 51 315 7.0 13.0 0.00 0.55 0.00 82 1028.0
20221208090422 51 315 10.0 12.0 0.00 0.55 0.00 82 1028.0
20221208090400 51 315 11.0 15.0 0.00 0.55 0.00 82 1028.0
20221208090221 51 315 7.0 13.0 0.00 0.56 0.00 82 1028.0
20221208090120 51 315 8.0 13.0 0.00 0.56 0.00 82 1028.0
20221208090020 51 315 8.0 11.0 0.00 0.57 0.00 82 1028.0
20221208085920 51 338 9.0 12.0 0.00 0.57 0.00 82 1028.1
20221208085820 51 315 5.0 8.0 0.00 0.58 0.00 82 1028.0
20221208085720 51 315 7.0 12.0 0.00 0.59 0.00 82 1028.1
20221208085640 51 315 8.0 15.0 0.00 0.59 0.00 82 1028.1
20221208085540 51 315 4.0 6.0 0.00 0.60 0.00 83 1028.1
20221208085420 51 0 7.0 10.0 0.00 0.60 0.00 83 1028.1
20221208085320 51 0 7.0 10.0 0.00 0.60 0.00 83 1028.0
20221208085220 51 293 4.0 8.0 0.00 0.60 0.00 83 1028.0
20221208085120 51 338 7.0 13.0 0.00 0.61 0.00 83 1028.0
20221208085020 51 293 8.0 16.0 0.00 0.61 0.00 83 1028.0
20221208084920 51 270 7.0 9.0 0.00 0.61 0.00 83 1028.2
20221208084821 51 338 4.0 7.0 0.00 0.61 0.00 83 1028.2
20221208084800 51 315 6.0 10.0 0.00 0.62 0.00 83 1028.2
20221208084640 51 338 6.0 11.0 0.00 0.62 0.00 84 1028.2
20221208084541 51 338 5.0 8.0 0.00 0.62 0.00 84 1028.1
20221208084420 51 315 5.0 8.0 0.00 0.62 0.00 84 1028.1
20221208084320 51 315 5.0 9.0 0.00 0.62 0.00 84 1028.1
20221208084220 51 315 7.0 10.0 0.00 0.63 0.00 84 1028.1
20221208084121 51 315 4.0 5.0 0.00 0.63 0.00 84 1028.2
20221208084020 52 293 3.0 7.0 0.00 0.63 0.00 84 1028.1
20221208083920 52 315 5.0 9.0 0.00 0.64 0.00 84 1028.2
20221208083821 52 315 5.0 10.0 0.00 0.64 0.00 84 1028.2
20221208083740 52 315 6.0 9.0 0.00 0.64 0.00 84 1028.2
20221208083621 52 0 4.0 7.0 0.00 0.65 0.00 84 1028.2
20221208083540 52 68 5.0 8.0 0.00 0.65 0.00 84 1028.2
20221208083440 52 293 3.0 5.0 0.00 0.66 0.00 84 1028.2
20221208083320 52 293 3.0 6.0 0.00 0.66 0.00 84 1028.2
20221208083220 52 0 7.0 11.0 0.00 0.66 0.00 84 1028.2
20221208083120 52 315 10.0 17.0 0.00 0.66 0.00 85 1028.2
20221208083021 52 315 9.0 12.0 0.00 0.67 0.00 85 1028.2
20221208082940 52 0 7.0 11.0 0.00 0.67 0.00 85 1028.1
20221208082820 52 338 12.0 15.0 0.00 0.67 0.00 86 1028.2
20221208082740 52 338 7.0 15.0 0.00 0.68 0.00 86 1028.2
20221208082520 52 315 10.0 17.0 0.00 0.68 0.00 87 1028.2
20221208082421 52 315 12.0 17.0 0.00 0.69 0.00 88 1028.2
20221208082320 52 293 8.0 12.0 0.00 0.69 0.00 88 1028.2
20221208082220 52 338 4.0 8.0 0.00 0.69 0.00 88 1028.2
20221208082119 52 23 2.0 5.0 0.00 0.70 0.00 88 1028.2
20221208082041 52 23 3.0 5.0 0.00 0.70 0.00 88 1028.1
20221208081920 52 0 2.0 3.0 0.00 0.70 0.00 89 1028.2
20221208081822 52 338 4.0 7.0 0.00 0.71 0.00 89 1028.2
20221208081720 52 338 4.0 7.0 0.00 0.71 0.00 89 1028.1
20221208081700 52 315 4.0 6.0 0.00 0.71 0.00 89 1028.1
20221208081522 52 0 4.0 4.0 0.00 0.71 0.00 89 1028.1
20221208081420 52 315 3.0 6.0 0.00 0.71 0.00 89 1028.1
20221208081320 52 0 5.0 7.0 0.00 0.72 0.00 90 1028.1
20221208081220 52 0 5.0 9.0 0.00 0.72 0.00 90 1028.1
20221208081120 52 293 3.0 5.0 0.00 0.72 0.00 90 1028.0
20221208081020 52 293 4.0 8.0 0.00 0.72 0.00 90 1028.0
20221208080940 52 315 2.0 3.0 0.00 0.72 0.00 90 1028.1
20221208080820 52 315 2.0 3.0 0.00 0.73 0.00 90 1028.1
20221208080741 52 0 3.0 5.0 0.00 0.73 0.00 90 1028.0
20221208080620 52 338 4.0 6.0 0.00 0.73 0.00 91 1028.0
20221208080520 52 338 2.0 4.0 0.00 0.73 0.00 91 1028.0
20221208080420 52 338 3.0 6.0 0.00 0.74 0.00 91 1027.9
20221208080320 52 0 4.0 8.0 0.00 0.74 0.00 91 1028.0
20221208080220 52 23 2.0 3.0 0.00 0.74 0.00 91 1027.9
20221208080120 52 0 3.0 5.0 0.00 0.75 0.00 91 1027.9
20221208080020 52 23 6.0 11.0 0.00 0.75 0.00 91 1028.0
20221208075920 52 45 6.0 10.0 0.00 0.75 0.00 91 1027.9
20221208075820 52 315 6.0 10.0 0.00 0.75 0.00 91 1028.0
20221208075720 52 45 4.0 8.0 0.00 0.76 0.00 91 1027.9
20221208075620 52 23 2.0 2.0 0.00 0.76 0.00 92 1028.0
20221208075521 52 23 1.0 2.0 0.00 0.76 0.00 92 1027.9
20221208075420 52 23 1.0 3.0 0.00 0.77 0.00 92 1027.9
20221208075342 52 23 1.0 2.0 0.00 0.77 0.00 92 1027.9
20221208075220 52 23 1.0 2.0 0.00 0.78 0.00 92 1027.8
20221208075120 52 23 2.0 4.0 0.00 0.79 0.00 92 1027.8
20221208075021 52 338 3.0 5.0 0.00 0.79 0.00 92 1027.8
20221208074920 52 338 2.0 3.0 0.00 0.79 0.00 92 1027.8
20221208074820 52 338 2.0 4.0 0.00 0.80 0.00 92 1027.8
20221208074720 52 315 3.0 5.0 0.00 0.80 0.00 92 1027.8
20221208074619 53 338 3.0 5.0 0.00 0.80 0.00 92 1027.8
20221208074520 53 0 2.0 5.0 0.00 0.81 0.00 92 1027.8
20221208074421 53 0 1.0 2.0 0.00 0.81 0.00 92 1027.8
20221208074320 53 0 2.0 3.0 0.00 0.82 0.00 92 1027.8
20221208074220 53 338 2.0 3.0 0.00 0.82 0.00 92 1027.9
20221208074120 53 338 2.0 3.0 0.00 0.83 0.00 92 1027.8
20221208074020 53 338 2.0 3.0 0.00 0.83 0.00 92 1027.8
20221208073920 53 315 2.0 4.0 0.00 0.84 0.00 92 1027.8
20221208073820 53 338 3.0 4.0 0.00 0.84 0.00 92 1027.8
20221208073720 53 270 1.0 3.0 0.00 0.84 0.00 92 1027.8
20221208073640 53 0.0 1.0 0.00 0.85 0.00 92 1027.8
20221208073520 53 270 2.0 3.0 0.00 0.85 0.00 93 1027.8
20221208073420 53 338 2.0 3.0 0.00 0.86 0.00 93 1027.7
20221208073320 53 338 2.0 3.0 0.00 0.86 0.00 93 1027.8
20221208073220 53 338 4.0 6.0 0.00 0.86 0.00 93 1027.7
20221208073120 53 338 1.0 2.0 0.00 0.87 0.00 93 1027.7
20221208073020 53 338 3.0 7.0 0.00 0.87 0.00 93 1027.7
20221208072920 54 248 3.0 7.0 0.00 0.87 0.00 94 1027.7
20221208072820 54 293 3.0 6.0 0.00 0.88 0.00 94 1027.7
20221208072720 53 338 3.0 6.0 0.00 0.89 0.00 94 1027.6
20221208072620 54 0 4.0 7.0 0.00 0.89 0.00 94 1027.7
20221208072520 54 315 2.0 4.0 0.00 0.89 0.00 95 1027.6
20221208072420 54 293 2.0 4.0 0.00 0.90 0.00 95 1027.6
20221208072340 54 315 4.0 8.0 0.00 0.90 0.00 95 1027.6
20221208072221 54 338 3.0 5.0 0.00 0.90 0.00 95 1027.7
20221208072120 54 315 3.0 5.0 0.00 0.91 0.00 96 1027.7
20221208072040 54 315 3.0 4.0 0.00 0.92 0.00 96 1027.7
20221208071920 54 0 3.0 5.0 0.00 0.92 0.00 96 1027.7
20221208071820 54 315 3.0 6.0 0.00 0.92 0.00 96 1027.6
20221208071720 54 315 2.0 3.0 0.00 0.93 0.00 96 1027.6
20221208071620 53 315 4.0 6.0 0.00 0.93 0.00 96 1027.6
20221208071520 53 338 5.0 9.0 0.00 0.93 0.00 96 1027.6
20221208071420 53 315 5.0 9.0 0.00 0.93 0.00 96 1027.6
20221208071320 53 315 5.0 9.0 0.00 0.94 0.00 96 1027.6
20221208071220 53 338 4.0 8.0 0.00 0.94 0.00 97 1027.6
20221208071121 53 23 3.0 5.0 0.00 0.95 0.00 97 1027.6
20221208071020 53 315 4.0 5.0 0.00 0.96 0.00 97 1027.6
20221208070919 53 338 6.0 9.0 0.00 0.97 0.00 97 1027.6
20221208070820 53 338 6.0 9.0 0.00 0.97 0.00 97 1027.6
20221208070740 53 23 3.0 6.0 0.00 0.98 0.00 97 1027.6
20221208070621 53 23 2.0 4.0 0.00 0.98 0.00 97 1027.6
20221208070520 53 293 3.0 5.0 0.00 0.99 0.00 97 1027.6
20221208070440 53 0 4.0 7.0 0.00 0.99 0.00 97 1027.6
20221208070340 53 270 4.0 6.0 0.00 1.00 0.00 97 1027.6
20221208070220 53 338 5.0 8.0 0.00 1.00 0.00 97 1027.5
20221208070120 53 315 3.0 9.0 0.00 1.00 0.00 97 1027.6
20221208070020 53 315 4.0 7.0 0.00 1.01 0.00 97 1027.6
20221208065940 53 338 4.0 8.0 0.00 1.01 0.00 97 1027.6
20221208065822 53 315 2.0 4.0 0.00 1.02 0.00 97 1027.6
20221208065740 53 0 5.0 8.0 0.00 1.02 0.00 97 1027.6
20221208065640 53 338 3.0 5.0 0.00 1.02 0.00 97 1027.6
20221208065520 53 338 4.0 6.0 0.00 1.03 0.00 97 1027.5
20221208065420 53 0 2.0 3.0 0.00 1.03 0.00 97 1027.5
20221208065320 53 0 1.0 2.0 0.00 1.03 0.00 97 1027.5
20221208065220 53 0 2.0 3.0 0.00 1.04 0.00 97 1027.5
20221208065120 53 315 4.0 8.0 0.00 1.04 0.00 98 1027.4
20221208065020 53 0 3.0 8.0 0.00 1.05 0.00 98 1027.4
20221208064920 53 315 4.0 9.0 0.00 1.05 0.00 98 1027.4
20221208064820 53 315 4.0 8.0 0.00 1.05 0.00 98 1027.4
20221208064720 53 225 2.0 4.0 0.00 1.06 0.00 98 1027.4
20221208064620 53 315 3.0 5.0 0.00 1.06 0.00 98 1027.4
20221208064520 53 293 2.0 4.0 0.00 1.07 0.00 98 1027.3
20221208064441 53 293 1.0 3.0 0.00 1.07 0.00 98 1027.3
20221208064340 53 293 2.0 3.0 0.00 1.08 0.00 98 1027.3
20221208064219 53 0 1.0 2.0 0.00 1.08 0.00 98 1027.3
20221208064119 53 0 2.0 4.0 0.00 1.08 0.00 98 1027.2
20221208064021 53 315 2.0 3.0 0.00 1.09 0.00 98 1027.2
20221208063921 53 315 4.0 6.0 0.00 1.09 0.00 98 1027.2
20221208063820 53 338 6.0 9.0 0.00 1.10 0.00 98 1027.2
20221208063720 53 0 3.0 4.0 0.00 1.10 0.00 98 1027.1
20221208063619 53 23 2.0 3.0 0.00 1.10 0.00 98 1027.1
20221208063520 53 315 3.0 6.0 0.00 1.10 0.00 98 1027.1
20221208063420 53 315 6.0 10.0 0.00 1.10 0.00 98 1027.1
20221208063319 53 315 3.0 5.0 0.00 1.10 0.00 98 1027.1
20221208063219 53 338 5.0 9.0 0.00 1.11 0.00 98 1027.1
20221208063120 53 23 4.0 6.0 0.00 1.11 0.00 98 1027.1
20221208063040 53 338 2.0 4.0 0.00 1.11 0.00 98 1027.1
20221208062920 53 0 4.0 6.0 0.00 1.12 0.00 98 1027.1
20221208062820 53 0 3.0 5.0 0.00 1.12 0.00 98 1027.1
20221208062720 53 23 3.0 5.0 0.00 1.12 0.00 98 1027.1
20221208062620 53 0 1.0 3.0 0.00 1.12 0.00 98 1027.1
20221208062541 53 23 2.0 3.0 0.00 1.13 0.00 98 1027.1
20221208062421 53 338 5.0 7.0 0.00 1.13 0.00 98 1027.1
20221208062320 53 338 4.0 9.0 0.00 1.14 0.00 98 1027.1
20221208062219 53 0 5.0 9.0 0.00 1.14 0.00 98 1027.0
20221208062119 53 0 2.0 3.0 0.00 1.14 0.00 98 1027.1
20221208062019 53 338 2.0 11.0 0.00 1.15 0.00 98 1027.1
20221208061919 53 23 4.0 9.0 0.00 1.15 0.00 98 1027.0
20221208061840 53 338 6.0 11.0 0.00 1.16 0.00 98 1027.1
20221208061720 53 315 5.0 10.0 0.00 1.16 0.00 98 1027.1
20221208061620 53 293 5.0 8.0 0.00 1.17 0.00 98 1027.0
20221208061520 54 315 5.0 7.0 0.00 1.17 0.00 98 1027.0
20221208061420 54 248 3.0 8.0 0.00 1.17 0.00 98 1027.0
20221208061340 54 338 3.0 5.0 0.00 1.18 0.00 98 1027.0
20221208061220 54 315 4.0 6.0 0.00 1.18 0.00 98 1027.0
20221208061120 54 0 4.0 9.0 0.00 1.19 0.00 98 1027.0
20221208061020 54 0 2.0 3.0 0.00 1.19 0.00 98 1027.0
20221208060919 54 293 3.0 5.0 0.00 1.20 0.00 98 1027.0
20221208060819 54 315 4.0 8.0 0.00 1.20 0.00 98 1027.0
20221208060720 54 315 3.0 4.0 0.00 1.21 0.00 98 1026.9
20221208060700 54 315 3.0 4.0 0.00 1.21 0.00 98 1026.9
20221208060520 54 315 4.0 8.0 0.00 1.21 0.00 98 1026.9
20221208060420 54 338 3.0 4.0 0.00 1.22 0.00 98 1026.9
20221208060320 54 315 4.0 8.0 0.00 1.22 0.00 98 1027.0
20221208060220 54 315 1.0 3.0 0.00 1.22 0.00 98 1026.9
20221208060201 54 315 3.0 5.0 0.00 1.22 0.00 98 1026.9
20221208060100 54 315 3.0 9.0 0.00 1.23 0.00 98 1026.9
20221208060000 54 270 5.0 9.0 0.00 1.23 0.00 98 1026.9
20221208055940 54 338 3.0 5.0 0.00 1.24 0.00 98 1026.9
20221208055719 54 338 2.0 4.0 0.00 1.24 0.00 98 1026.9
20221208055620 54 293 2.0 3.0 0.00 1.25 0.00 98 1026.9
20221208055520 54 270 4.0 6.0 0.00 1.25 0.00 98 1026.9
20221208055420 53 293 4.0 7.0 0.00 1.25 0.00 98 1026.8
20221208055320 53 338 3.0 7.0 0.00 1.26 0.00 98 1026.8
20221208055220 53 293 3.0 7.0 0.00 1.26 0.00 98 1026.8
20221208055140 53 315 4.0 5.0 0.00 1.27 0.00 98 1026.8
20221208055021 53 315 1.0 3.0 0.00 1.27 0.00 98 1026.8
20221208054920 53 0.0 0.0 0.00 1.27 0.00 98 1026.7
20221208054820 53 0.0 0.0 0.00 1.27 0.00 98 1026.7
20221208054719 53 0.0 0.0 0.00 1.28 0.00 98 1026.6
20221208054620 53 0.0 0.0 0.00 1.28 0.00 98 1026.6
20221208054559 53 0.0 0.0 0.00 1.28 0.00 98 1026.6
20221208054421 53 0.0 0.0 0.00 1.28 0.00 98 1026.6
20221208054320 53 0.0 0.0 0.00 1.28 0.00 98 1026.6
20221208054220 53 0.0 0.0 0.00 1.28 0.00 98 1026.6
20221208054120 53 0.0 0.0 0.00 1.29 0.00 98 1026.6
20221208054020 53 0.0 0.0 0.00 1.29 0.00 98 1026.6
20221208053919 53 0.0 0.0 0.00 1.29 0.00 98 1026.5
20221208053820 54 0.0 1.0 0.00 1.29 0.00 98 1026.5
20221208053721 54 0.0 1.0 0.00 1.30 0.00 98 1026.5
20221208053620 54 338 1.0 2.0 0.00 1.30 0.00 98 1026.5
20221208053520 54 338 1.0 2.0 0.00 1.30 0.00 98 1026.5
20221208053419 54 338 1.0 1.0 0.00 1.31 0.00 98 1026.5
20221208053320 54 0.0 1.0 0.00 1.31 0.00 98 1026.4
20221208053221 54 0.0 1.0 0.00 1.31 0.00 98 1026.4
20221208053120 54 0.0 1.0 0.00 1.32 0.00 98 1026.4
20221208053040 54 0.0 1.0 0.00 1.32 0.00 98 1026.4
20221208052939 54 0.0 0.0 0.00 1.33 0.00 98 1026.4
20221208052900 54 0.0 0.0 0.00 1.33 0.00 98 1026.4
20221208052720 54 0.0 0.0 0.00 1.34 0.00 98 1026.4
20221208052640 54 0.0 0.0 0.00 1.34 0.00 98 1026.4
20221208052520 54 0.0 1.0 0.00 1.35 0.00 98 1026.4
20221208052420 54 338 1.0 2.0 0.00 1.36 0.00 98 1026.4
20221208052319 54 0.0 1.0 0.00 1.36 0.00 98 1026.3
20221208052239 54 0.0 1.0 0.00 1.37 0.00 98 1026.4
20221208052139 54 293 1.0 1.0 0.00 1.37 0.00 98 1026.4
20221208052019 54 293 1.0 2.0 0.00 1.38 0.00 98 1026.4
20221208051920 54 0.0 1.0 0.00 1.38 0.00 98 1026.4
20221208051820 54 0.0 1.0 0.00 1.39 0.00 98 1026.3
20221208051720 54 293 1.0 2.0 0.00 1.39 0.00 98 1026.4
20221208051619 54 0.0 1.0 0.00 1.40 0.00 98 1026.3
20221208051519 54 0.0 1.0 0.00 1.40 0.00 98 1026.3
20221208051419 54 0.0 1.0 0.00 1.41 0.00 98 1026.3
20221208051339 54 293 1.0 1.0 0.00 1.42 0.00 98 1026.4
20221208051241 54 293 1.0 1.0 0.00 1.42 0.00 98 1026.4
20221208051119 54 293 2.0 3.0 0.00 1.43 0.00 98 1026.4
20221208051039 54 315 1.0 2.0 0.00 1.43 0.00 98 1026.4
20221208050919 54 293 1.0 2.0 0.00 1.44 0.00 98 1026.4
20221208050840 54 293 2.0 3.0 0.00 1.45 0.00 98 1026.4
20221208050720 54 293 2.0 3.0 0.00 1.45 0.00 98 1026.4
20221208050619 54 293 2.0 3.0 0.00 1.45 0.00 98 1026.4
20221208050519 54 338 1.0 4.0 0.00 1.45 0.00 98 1026.5
20221208050419 54 315 1.0 2.0 0.00 1.46 0.00 98 1026.5
20221208050319 54 0.0 1.0 0.00 1.46 0.00 98 1026.5
20221208050300 54 315 1.0 2.0 0.00 1.46 0.00 98 1026.5
20221208050139 54 0.0 0.0 0.00 1.47 0.00 98 1026.5
20221208050020 54 0.0 0.0 0.00 1.47 1.47 98 1026.5
20221208045919 54 23 1.0 2.0 0.00 1.47 1.47 98 1026.5
20221208045820 54 0 3.0 8.0 0.00 1.47 1.47 98 1026.5
20221208045719 54 338 1.0 2.0 0.00 1.48 1.47 98 1026.5
20221208045620 54 338 1.0 2.0 0.00 1.48 1.47 98 1026.5
20221208045520 54 338 2.0 4.0 0.00 1.48 1.47 98 1026.5
20221208045441 54 0.0 2.0 0.00 1.49 1.47 98 1026.5
20221208045319 54 293 1.0 1.0 0.00 1.49 1.47 98 1026.4
20221208045219 54 0.0 0.0 0.00 1.50 1.47 98 1026.5
20221208045119 54 0.0 0.0 0.00 1.50 1.47 98 1026.5
20221208045039 54 0.0 1.0 0.00 1.50 1.47 98 1026.5
20221208044919 54 0.0 1.0 0.00 1.51 1.47 98 1026.5
20221208044819 54 293 1.0 2.0 0.00 1.51 1.47 98 1026.5
20221208044720 54 293 1.0 3.0 0.00 1.51 1.47 98 1026.4
20221208044620 53 0.0 2.0 0.00 1.51 1.47 98 1026.5
20221208044519 53 0.0 0.0 0.00 1.51 1.47 98 1026.5
20221208044419 53 0.0 0.0 0.00 1.52 1.47 98 1026.5
20221208044320 53 0.0 0.0 0.00 1.52 1.47 98 1026.5
20221208044220 53 0.0 0.0 0.00 1.52 1.47 98 1026.5
20221208044119 53 0.0 0.0 0.00 1.52 1.47 98 1026.5
20221208044019 53 0.0 0.0 0.00 1.52 1.47 98 1026.5
20221208043939 53 0.0 0.0 0.00 1.52 1.47 98 1026.6
20221208043819 53 0.0 0.0 0.00 1.53 1.47 98 1026.5
20221208043739 53 0.0 0.0 0.00 1.53 1.47 98 1026.6
20221208043619 53 0.0 0.0 0.00 1.53 1.47 98 1026.6
20221208043520 53 0.0 0.0 0.00 1.53 1.47 98 1026.6
20221208043419 53 0.0 0.0 0.00 1.53 1.47 98 1026.6
20221208043340 53 0.0 0.0 0.00 1.53 1.47 98 1026.6
20221208043240 53 0.0 0.0 0.00 1.53 1.47 98 1026.6
20221208043121 53 0.0 0.0 0.00 1.53 1.47 98 1026.7
20221208043019 53 0.0 0.0 0.00 1.53 1.47 98 1026.6
20221208042919 53 0.0 0.0 0.00 1.53 1.47 98 1026.6
20221208042819 53 0.0 0.0 0.00 1.53 1.47 98 1026.6
20221208042719 53 0.0 0.0 0.00 1.53 1.47 98 1026.6
20221208042619 53 0.0 0.0 0.00 1.54 1.47 98 1026.6
20221208042519 53 0.0 0.0 0.00 1.54 1.47 98 1026.6
20221208042419 53 0.0 0.0 0.00 1.54 1.47 98 1026.6
20221208042320 53 0.0 0.0 0.00 1.54 1.47 98 1026.6
20221208042219 53 0.0 0.0 0.00 1.54 1.47 98 1026.5
20221208042120 53 0.0 0.0 0.00 1.55 1.47 98 1026.6
20221208042019 53 0.0 0.0 0.00 1.55 1.47 98 1026.5
20221208041939 53 0.0 0.0 0.00 1.55 1.47 98 1026.5
20221208041819 53 0.0 0.0 0.00 1.55 1.47 98 1026.5
20221208041719 53 0.0 0.0 0.00 1.55 1.47 98 1026.5
20221208041619 53 0.0 0.0 0.00 1.55 1.47 98 1026.5
20221208041519 53 0.0 0.0 0.00 1.55 1.47 98 1026.5
20221208041419 53 0.0 0.0 0.00 1.56 1.47 98 1026.4
20221208041320 53 0.0 0.0 0.00 1.56 1.47 98 1026.5
20221208041240 53 0.0 0.0 0.00 1.56 1.47 98 1026.5
20221208041119 53 0.0 0.0 0.00 1.56 1.47 98 1026.5
20221208041021 53 0.0 0.0 0.00 1.56 1.47 98 1026.4
20221208040919 53 0.0 0.0 0.00 1.57 1.47 98 1026.4
20221208040839 53 0.0 0.0 0.00 1.57 1.47 98 1026.4
20221208040739 53 0.0 0.0 0.00 1.57 1.47 98 1026.4
20221208040619 53 0.0 0.0 0.00 1.58 1.47 98 1026.4
20221208040519 53 0.0 0.0 0.00 1.58 1.47 98 1026.5
20221208040419 53 0.0 0.0 0.00 1.58 1.47 98 1026.5
20221208040319 53 0.0 0.0 0.00 1.58 1.47 98 1026.5
20221208040219 53 0.0 0.0 0.00 1.58 1.47 98 1026.5
20221208040120 53 0.0 0.0 0.00 1.58 1.47 98 1026.5
20221208040020 53 0.0 0.0 0.00 1.58 1.47 98 1026.4
20221208035919 53 0.0 0.0 0.00 1.59 1.47 98 1026.4
20221208035819 53 0.0 0.0 0.00 1.59 1.47 98 1026.4
20221208035719 53 0.0 0.0 0.00 1.59 1.47 98 1026.4
20221208035639 53 0.0 0.0 0.00 1.59 1.47 98 1026.5
20221208035520 53 0.0 0.0 0.00 1.59 1.47 98 1026.5
20221208035419 53 0.0 0.0 0.00 1.60 1.47 98 1026.5
20221208035319 53 0.0 0.0 0.00 1.60 1.47 98 1026.4
20221208035219 53 0.0 0.0 0.00 1.60 1.47 98 1026.5
20221208035139 53 0.0 0.0 0.00 1.60 1.47 98 1026.4
20221208035019 53 0.0 0.0 0.00 1.60 1.47 98 1026.4
20221208034959 53 0.0 0.0 0.00 1.60 1.47 98 1026.4
20221208034819 53 0.0 0.0 0.00 1.60 1.47 98 1026.4
20221208034719 53 0.0 0.0 0.00 1.61 1.47 98 1026.4
20221208034619 53 0.0 0.0 0.00 1.61 1.47 98 1026.3
20221208034520 53 0.0 0.0 0.00 1.61 1.47 98 1026.4
20221208034420 53 0.0 0.0 0.00 1.61 1.47 98 1026.4
20221208034320 53 0.0 0.0 0.00 1.61 1.47 98 1026.4
20221208034219 53 0.0 0.0 0.00 1.61 1.47 98 1026.5
20221208034119 53 0.0 0.0 0.00 1.62 1.47 98 1026.5
20221208034040 53 0.0 0.0 0.00 1.62 1.47 98 1026.4
20221208033919 53 0.0 0.0 0.00 1.62 1.47 98 1026.4
20221208033819 53 0.0 0.0 0.00 1.62 1.47 98 1026.4
20221208033739 53 0.0 0.0 0.00 1.62 1.47 98 1026.4
20221208033619 53 0.0 0.0 0.00 1.62 1.47 98 1026.4
20221208033520 53 0.0 0.0 0.00 1.62 1.47 98 1026.4
20221208033419 53 0.0 0.0 0.00 1.62 1.47 98 1026.4
20221208033319 53 0.0 0.0 0.00 1.62 1.47 98 1026.3
20221208033219 53 0.0 0.0 0.00 1.62 1.47 98 1026.3
20221208033119 53 0.0 0.0 0.00 1.63 1.47 98 1026.2
20221208033019 53 0.0 0.0 0.00 1.63 1.47 98 1026.2
20221208032919 53 0.0 0.0 0.00 1.63 1.47 98 1026.2
20221208032819 53 0.0 0.0 0.00 1.64 1.47 98 1026.2
20221208032719 53 0.0 0.0 0.00 1.64 1.47 98 1026.2
20221208032619 53 0.0 0.0 0.00 1.64 1.47 98 1026.3
20221208032520 54 0.0 0.0 0.00 1.65 1.47 98 1026.3
20221208032419 54 0.0 0.0 0.00 1.66 1.47 98 1026.3
20221208032319 54 0.0 0.0 0.00 1.66 1.47 98 1026.3
20221208032219 54 0.0 0.0 0.00 1.66 1.47 98 1026.4
20221208032119 54 0.0 0.0 0.00 1.66 1.47 98 1026.3
20221208032019 54 0.0 0.0 0.00 1.67 1.47 98 1026.3
20221208031919 54 0.0 0.0 0.00 1.67 1.47 98 1026.3
20221208031819 54 0.0 0.0 0.00 1.67 1.47 98 1026.3
20221208031739 54 0.0 0.0 0.00 1.68 1.47 98 1026.2
20221208031620 54 0.0 0.0 0.00 1.68 1.47 98 1026.2
20221208031519 54 0.0 0.0 0.00 1.68 1.47 98 1026.2
20221208031419 53 0.0 0.0 0.00 1.68 1.47 98 1026.2
20221208031320 54 0.0 0.0 0.00 1.69 1.47 98 1026.2
20221208031219 53 0.0 0.0 0.00 1.69 1.47 98 1026.1
20221208031139 54 0.0 0.0 0.00 1.69 1.47 98 1026.2
20221208031019 54 0.0 0.0 0.00 1.70 1.47 98 1026.2
20221208030919 54 0.0 0.0 0.00 1.70 1.47 98 1026.2
20221208030819 54 0.0 0.0 0.00 1.70 1.47 98 1026.2
20221208030719 54 0.0 0.0 0.00 1.70 1.47 98 1026.2
20221208030619 54 0.0 0.0 0.00 1.71 1.47 98 1026.2
20221208030519 54 0.0 0.0 0.00 1.71 1.47 98 1026.2
20221208030420 54 0.0 0.0 0.00 1.71 1.47 98 1026.2
20221208030319 54 0.0 0.0 0.00 1.71 1.47 98 1026.2
20221208030221 54 0.0 0.0 0.00 1.72 1.47 98 1026.2
20221208030119 54 0.0 0.0 0.00 1.72 1.47 98 1026.2
20221208030019 54 0.0 0.0 0.00 1.72 1.47 98 1026.2
20221208025939 54 0.0 0.0 0.00 1.73 1.47 98 1026.1
20221208025819 54 0.0 0.0 0.00 1.73 1.47 98 1026.1
20221208025719 54 0.0 0.0 0.00 1.73 1.47 98 1026.1
20221208025621 54 0.0 0.0 0.00 1.73 1.47 98 1026.1
20221208025519 54 0.0 0.0 0.00 1.74 1.47 98 1026.1
20221208025419 54 0.0 0.0 0.00 1.74 1.47 98 1026.0
20221208025319 54 0.0 0.0 0.00 1.74 1.47 98 1026.0
20221208025219 54 0.0 0.0 0.00 1.74 1.47 98 1025.9
20221208025120 54 0.0 0.0 0.00 1.75 1.47 98 1025.9
20221208025019 54 0.0 0.0 0.00 1.75 1.47 98 1025.9
20221208024939 54 0.0 0.0 0.00 1.75 1.47 98 1025.9
20221208024819 54 0.0 1.0 0.00 1.75 1.47 98 1026.0
20221208024719 54 0.0 1.0 0.00 1.75 1.47 98 1026.1
20221208024619 54 248 1.0 2.0 0.00 1.75 1.47 98 1026.1
20221208024519 54 248 1.0 2.0 0.00 1.76 1.47 98 1026.1
20221208024419 54 248 1.0 2.0 0.00 1.76 1.47 98 1026.1
20221208024340 55 248 2.0 2.0 0.00 1.76 1.47 98 1026.1
20221208024219 55 248 1.0 2.0 0.00 1.76 1.47 98 1026.1
20221208024119 55 248 1.0 1.0 0.00 1.77 1.47 98 1026.1
20221208024019 55 248 1.0 2.0 0.00 1.77 1.47 98 1026.1
20221208023920 55 248 1.0 2.0 0.00 1.77 1.47 98 1026.1
20221208023819 55 248 1.0 2.0 0.00 1.77 1.47 98 1026.1
20221208023720 55 248 1.0 2.0 0.00 1.78 1.47 98 1026.1
20221208023619 55 248 1.0 2.0 0.00 1.78 1.47 98 1026.0
20221208023540 55 248 1.0 2.0 0.00 1.78 1.47 98 1026.0
20221208023439 55 248 1.0 2.0 0.00 1.78 1.47 98 1026.0
20221208023319 55 248 2.0 2.0 0.00 1.79 1.47 98 1026.0
20221208023221 55 248 1.0 2.0 0.00 1.79 1.47 98 1026.0
20221208023119 55 248 1.0 2.0 0.00 1.79 1.47 98 1026.0
20221208023021 55 248 1.0 3.0 0.00 1.79 1.47 98 1026.0
20221208022919 55 248 1.0 1.0 0.00 1.79 1.47 98 1026.0
20221208022819 55 248 1.0 2.0 0.00 1.79 1.47 98 1026.0
20221208022719 55 270 2.0 3.0 0.00 1.80 1.47 98 1026.0
20221208022619 55 270 3.0 3.0 0.00 1.80 1.47 98 1026.0
20221208022519 55 0.0 0.0 0.00 1.80 1.47 98 1026.0
20221208022419 55 0.0 2.0 0.00 1.80 1.47 98 1026.0
20221208022339 55 270 1.0 2.0 0.00 1.80 1.47 98 1026.0
20221208022220 56 0.0 1.0 0.00 1.80 1.47 98 1026.0
20221208022119 56 270 1.0 2.0 0.00 1.80 1.47 98 1026.0
20221208022019 56 270 1.0 2.0 0.00 1.80 1.47 98 1026.0
20221208021919 56 270 2.0 3.0 0.00 1.80 1.47 98 1026.0
20221208021819 56 248 2.0 3.0 0.00 1.80 1.47 98 1026.0
20221208021719 56 248 1.0 1.0 0.00 1.80 1.47 98 1026.0
20221208021619 56 248 1.0 2.0 0.00 1.81 1.47 98 1026.0
20221208021519 56 0.0 1.0 0.00 1.81 1.47 98 1026.0
20221208021419 56 248 1.0 1.0 0.00 1.81 1.47 98 1026.0
20221208021319 56 248 1.0 1.0 0.00 1.81 1.47 98 1026.0
20221208021239 56 248 1.0 2.0 0.00 1.81 1.47 98 1026.1
20221208021119 56 270 1.0 3.0 0.00 1.81 1.47 98 1026.0
20221208021019 56 270 1.0 2.0 0.00 1.81 1.47 98 1026.1
20221208020920 56 270 1.0 2.0 0.00 1.81 1.47 98 1026.1
20221208020819 56 270 3.0 4.0 0.00 1.81 1.47 98 1026.0
20221208020719 56 248 5.0 7.0 0.00 1.81 1.47 98 1026.1
20221208020619 56 248 2.0 3.0 0.00 1.81 1.47 98 1026.1
20221208020519 56 248 2.0 3.0 0.00 1.81 1.47 98 1026.1
20221208020419 56 248 3.0 4.0 0.00 1.82 1.47 98 1026.2
20221208020320 56 293 3.0 6.0 0.00 1.82 1.47 98 1026.2
20221208020219 56 315 1.0 3.0 0.00 1.82 1.47 98 1026.2
20221208020119 56 315 3.0 3.0 0.00 1.82 1.47 98 1026.2
20221208020019 56 293 2.0 3.0 0.00 1.82 1.47 98 1026.2
20221208015920 56 270 3.0 6.0 0.00 1.82 1.47 98 1026.2
20221208015819 56 270 3.0 7.0 0.00 1.82 1.47 98 1026.2
20221208015719 56 270 3.0 5.0 0.00 1.82 1.47 98 1026.2
20221208015619 56 270 4.0 6.0 0.00 1.82 1.47 98 1026.2
20221208015519 56 270 2.0 3.0 0.00 1.82 1.47 98 1026.2
20221208015419 56 270 2.0 3.0 0.00 1.82 1.47 98 1026.2
20221208015359 56 270 2.0 3.0 0.00 1.82 1.47 98 1026.1
20221208015219 56 270 1.0 2.0 0.00 1.82 1.47 98 1026.1
20221208015119 56 270 3.0 4.0 0.00 1.82 1.47 98 1026.1
20221208015019 56 315 2.0 5.0 0.00 1.83 1.47 98 1026.1
20221208014918 56 0.0 1.0 0.00 1.83 1.47 98 1026.1
20221208014839 56 270 2.0 3.0 0.00 1.83 1.47 98 1026.2
20221208014719 56 270 3.0 4.0 0.00 1.83 1.47 98 1026.2
20221208014619 56 270 2.0 3.0 0.00 1.83 1.47 98 1026.2
20221208014520 56 270 1.0 2.0 0.00 1.83 1.47 98 1026.2
20221208014439 56 270 1.0 2.0 0.00 1.83 1.47 98 1026.1
20221208014319 56 270 1.0 2.0 0.00 1.83 1.47 98 1026.1
20221208014219 56 0.0 1.0 0.00 1.84 1.47 98 1026.2
20221208014119 56 270 1.0 3.0 0.00 1.84 1.47 98 1026.2
20221208014039 56 270 4.0 6.0 0.00 1.84 1.47 98 1026.2
20221208013919 56 248 2.0 4.0 0.00 1.84 1.47 98 1026.2
20221208013859 56 248 2.0 3.0 0.00 1.84 1.47 98 1026.1
20221208013719 56 293 1.0 2.0 0.00 1.84 1.47 98 1026.0
20221208013639 56 293 2.0 3.0 0.00 1.84 1.47 98 1026.0
20221208013521 56 0.0 2.0 0.00 1.84 1.47 98 1026.0
20221208013419 56 0.0 1.0 0.00 1.84 1.47 98 1026.0
20221208013319 56 225 2.0 3.0 0.00 1.84 1.47 98 1026.0
20221208013220 56 248 3.0 6.0 0.00 1.85 1.47 98 1026.1
20221208013120 56 248 2.0 3.0 0.00 1.85 1.47 98 1026.0
20221208013019 56 248 1.0 3.0 0.00 1.85 1.47 98 1026.0
20221208012919 56 248 1.0 3.0 0.00 1.85 1.47 98 1026.0
20221208012839 56 248 1.0 3.0 0.00 1.85 1.47 98 1026.0
20221208012739 56 0.0 2.0 0.00 1.85 1.47 98 1025.9
20221208012619 56 248 2.0 3.0 0.00 1.86 1.47 98 1026.0
20221208012519 56 248 2.0 3.0 0.00 1.86 1.47 98 1026.0
20221208012419 56 248 3.0 4.0 0.00 1.86 1.47 98 1026.0
20221208012319 56 203 1.0 2.0 0.00 1.86 1.47 98 1026.1
20221208012219 56 203 3.0 7.0 0.00 1.87 1.47 98 1026.0
20221208012139 56 270 5.0 7.0 0.00 1.87 1.47 98 1026.1
20221208012019 56 270 2.0 4.0 0.00 1.87 1.47 98 1026.1
20221208011920 56 270 3.0 4.0 0.00 1.87 1.47 98 1026.1
20221208011819 56 248 2.0 4.0 0.00 1.88 1.47 98 1026.1
20221208011720 56 248 3.0 3.0 0.00 1.88 1.47 98 1026.2
20221208011640 56 248 2.0 4.0 0.00 1.88 1.47 98 1026.1
20221208011520 56 248 1.0 2.0 0.00 1.88 1.47 98 1026.1
20221208011441 56 248 2.0 3.0 0.00 1.88 1.47 98 1026.0
20221208011319 56 248 1.0 2.0 0.00 1.88 1.47 98 1026.0
20221208011219 56 248 1.0 2.0 0.00 1.88 1.47 98 1026.0
20221208011119 56 248 1.0 3.0 0.00 1.88 1.47 98 1026.0
20221208011019 56 225 3.0 6.0 0.00 1.88 1.47 98 1026.1
20221208010919 56 0.0 1.0 0.00 1.88 1.47 98 1026.1
20221208010839 56 225 2.0 3.0 0.00 1.88 1.47 98 1026.1
20221208010719 56 248 3.0 4.0 0.00 1.88 1.47 98 1026.2
20221208010620 56 270 4.0 7.0 0.00 1.88 1.47 98 1026.2
20221208010518 56 270 4.0 6.0 0.00 1.88 1.47 98 1026.2
20221208010421 56 225 2.0 7.0 0.00 1.88 1.47 98 1026.1
20221208010321 56 248 2.0 6.0 0.00 1.88 1.47 98 1026.2
20221208010219 56 270 3.0 4.0 0.00 1.89 1.47 98 1026.1
20221208010120 56 248 2.0 4.0 0.00 1.89 1.47 98 1026.2
20221208010019 56 248 3.0 4.0 0.00 1.89 1.47 98 1026.2
20221208005919 56 315 3.0 4.0 0.00 1.89 1.47 98 1026.2
20221208005819 56 270 4.0 6.0 0.00 1.89 1.47 98 1026.2
20221208005719 56 248 3.0 4.0 0.00 1.89 1.47 98 1026.1
20221208005619 56 270 2.0 3.0 0.00 1.89 1.47 98 1026.0
20221208005519 56 270 1.0 3.0 0.00 1.89 1.47 98 1026.0
20221208005419 56 248 4.0 7.0 0.00 1.89 1.47 98 1026.0
20221208005321 56 248 2.0 3.0 0.00 1.90 1.47 98 1025.9
20221208005301 56 248 2.0 3.0 0.00 1.90 1.47 98 1025.9
20221208005119 56 248 2.0 3.0 0.00 1.90 1.47 98 1025.9
20221208005040 56 225 2.0 4.0 0.00 1.90 1.47 98 1025.9
20221208004939 56 270 3.0 4.0 0.00 1.90 1.47 98 1025.9
20221208004859 56 270 2.0 3.0 0.00 1.90 1.47 98 1025.9
20221208004719 56 270 3.0 4.0 0.00 1.90 1.47 98 1025.9
20221208004619 56 248 3.0 6.0 0.00 1.90 1.47 98 1026.0
20221208004519 56 248 5.0 8.0 0.00 1.90 1.47 98 1026.0
20221208004419 56 270 4.0 7.0 0.00 1.90 1.47 98 1026.0
20221208004321 56 270 3.0 4.0 0.00 1.91 1.47 98 1026.0
20221208004221 56 248 2.0 3.0 0.00 1.91 1.47 98 1026.0
20221208004121 56 248 3.0 6.0 0.00 1.91 1.47 98 1026.0
20221208004041 56 248 4.0 8.0 0.00 1.91 1.47 98 1026.0
20221208003921 56 248 3.0 6.0 0.00 1.91 1.47 98 1026.1
20221208003819 56 270 6.0 9.0 0.00 1.91 1.47 98 1026.1
20221208003719 56 248 3.0 7.0 0.00 1.91 1.47 98 1026.1
20221208003619 56 248 3.0 6.0 0.00 1.91 1.47 98 1026.2
20221208003520 56 248 2.0 4.0 0.00 1.91 1.47 98 1026.2
20221208003419 56 270 2.0 3.0 0.00 1.92 1.47 98 1026.2
20221208003321 56 270 3.0 7.0 0.00 1.92 1.47 98 1026.2
20221208003219 56 203 3.0 7.0 0.00 1.92 1.47 98 1026.0
20221208003122 56 270 5.0 8.0 0.00 1.92 1.47 98 1026.0
20221208003021 56 270 2.0 3.0 0.00 1.92 1.47 98 1026.0
20221208002919 56 270 2.0 3.0 0.00 1.92 1.47 98 1026.0
20221208002821 56 248 2.0 3.0 0.00 1.92 1.47 98 1025.9
20221208002740 56 180 1.0 2.0 0.00 1.92 1.47 98 1025.9
20221208002619 56 270 2.0 4.0 0.00 1.92 1.47 98 1025.8
20221208002539 56 225 1.0 3.0 0.00 1.92 1.47 98 1025.9
20221208002420 56 270 2.0 7.0 0.00 1.92 1.47 98 1025.8
20221208002319 56 270 1.0 2.0 0.00 1.92 1.47 98 1025.8
20221208002218 56 270 2.0 3.0 0.00 1.92 1.47 98 1025.7
20221208002119 56 270 1.0 3.0 0.00 1.92 1.47 98 1025.7
20221208002019 56 203 2.0 4.0 0.00 1.92 1.47 98 1025.8
20221208001921 56 270 3.0 7.0 0.00 1.92 1.47 98 1025.7
20221208001841 56 158 2.0 7.0 0.00 1.92 1.47 98 1025.7
20221208001720 56 158 2.0 2.0 0.00 1.92 1.47 98 1025.7
20221208001619 56 225 2.0 4.0 0.00 1.92 1.47 98 1025.7
20221208001519 56 225 3.0 4.0 0.00 1.92 1.47 98 1025.7
20221208001419 56 338 2.0 3.0 0.00 1.92 1.47 98 1025.7
20221208001319 56 338 1.0 3.0 0.00 1.92 1.47 98 1025.7
20221208001239 56 203 1.0 2.0 0.00 1.92 1.47 98 1025.8
20221208001119 56 203 3.0 4.0 0.00 1.92 1.47 98 1025.8
20221208001042 56 225 4.0 9.0 0.00 1.92 1.47 98 1025.8
20221208000920 56 225 2.0 5.0 0.00 1.92 1.47 98 1025.8
20221208000821 56 225 2.0 3.0 0.00 1.92 1.47 98 1025.8
20221208000721 56 203 2.0 4.0 0.00 1.92 1.47 98 1025.8
20221208000640 56 203 2.0 3.0 0.00 1.92 1.47 98 1025.8
20221208000521 56 203 3.0 5.0 0.00 1.92 1.47 98 1025.8
20221208000440 56 248 2.0 5.0 0.00 1.92 1.47 98 1025.9
20221208000339 56 248 5.0 8.0 0.00 1.93 1.47 98 1025.9
20221208000219 56 270 3.0 5.0 0.00 1.93 1.47 98 1025.9
20221208000120 56 248 3.0 4.0 0.00 1.93 1.47 98 1025.9
20221208000019 56 248 3.0 8.0 0.00 1.93 1.47 98 1025.9
20221207235919 56 248 3.0 4.0 0.00 1.93 1.47 98 1025.9
20221207235821 56 225 4.0 8.0 0.00 1.93 1.47 98 1025.9
20221207235721 56 203 3.0 5.0 0.00 1.93 1.47 98 1025.8
20221207235621 55 248 2.0 3.0 0.00 1.93 1.47 98 1025.8
20221207235520 55 248 3.0 4.0 0.00 1.93 1.47 98 1025.8
20221207235441 55 180 3.0 6.0 0.00 1.93 1.47 98 1025.9
20221207235320 55 270 1.0 2.0 0.00 1.93 1.47 98 1025.9
20221207235219 55 270 1.0 2.0 0.00 1.93 1.47 98 1025.9
20221207235119 55 203 2.0 4.0 0.00 1.93 1.47 98 1025.9
20221207235019 55 203 1.0 2.0 0.00 1.93 1.47 98 1025.9
20221207234919 55 0.0 0.0 0.00 1.93 1.47 98 1025.9
20221207234819 55 0.0 0.0 0.00 1.93 1.47 98 1025.8
20221207234719 55 0.0 0.0 0.00 1.93 1.47 98 1025.9
20221207234620 55 0.0 0.0 0.00 1.93 1.47 98 1025.9
20221207234521 55 0.0 0.0 0.00 1.93 1.47 98 1025.9
20221207234440 55 0.0 0.0 0.00 1.93 1.47 98 1025.9
20221207234319 55 0.0 0.0 0.00 1.93 1.47 98 1025.9
20221207234219 55 0.0 0.0 0.00 1.93 1.47 98 1025.9
20221207234119 55 0.0 0.0 0.00 1.93 1.47 98 1025.9
20221207234019 55 0.0 0.0 0.00 1.93 1.47 98 1025.9
20221207233919 55 0.0 0.0 0.00 1.93 1.47 98 1025.8
20221207233819 55 0.0 0.0 0.00 1.93 1.47 98 1025.8
20221207233719 55 0.0 0.0 0.00 1.93 1.47 98 1025.8
20221207233621 55 0.0 0.0 0.00 1.93 1.47 98 1025.8
20221207233520 55 0.0 0.0 0.00 1.93 1.47 98 1025.9
20221207233420 55 0.0 1.0 0.00 1.93 1.47 98 1025.9
20221207233322 55 203 1.0 1.0 0.00 1.93 1.47 98 1026.0
20221207233220 55 203 1.0 2.0 0.00 1.93 1.47 98 1026.0
20221207233201 55 203 1.0 2.0 0.00 1.93 1.47 98 1026.0
20221207233101 55 0.0 1.0 0.00 1.93 1.47 98 1026.0
20221207232939 55 203 1.0 2.0 0.00 1.93 1.47 98 1026.1
20221207232839 55 203 1.0 2.0 0.00 1.93 1.47 98 1026.1
20221207232719 55 203 1.0 2.0 0.00 1.93 1.47 98 1026.1
20221207232621 55 203 2.0 3.0 0.00 1.93 1.47 98 1026.2
20221207232521 55 248 1.0 2.0 0.00 1.93 1.47 98 1026.1
20221207232439 55 0.0 1.0 0.00 1.93 1.47 98 1026.1
20221207232319 55 248 1.0 1.0 0.00 1.93 1.47 98 1026.2
20221207232220 55 248 1.0 2.0 0.00 1.93 1.47 98 1026.3
20221207232119 55 248 2.0 4.0 0.00 1.93 1.47 98 1026.3
20221207232022 55 225 1.0 2.0 0.00 1.93 1.47 98 1026.3
20221207231941 55 0.0 1.0 0.00 1.93 1.47 98 1026.3
20221207231821 55 225 1.0 2.0 0.00 1.93 1.47 98 1026.3
20221207231720 55 225 2.0 2.0 0.00 1.93 1.47 98 1026.3
20221207231620 55 225 1.0 2.0 0.00 1.93 1.47 98 1026.3
20221207231522 55 225 1.0 2.0 0.00 1.93 1.47 98 1026.2
20221207231419 55 270 1.0 2.0 0.00 1.93 1.47 98 1026.2
20221207231321 55 270 1.0 2.0 0.00 1.93 1.47 98 1026.1
20221207231219 55 270 1.0 2.0 0.00 1.93 1.47 98 1026.2
20221207231119 55 270 1.0 2.0 0.00 1.93 1.47 98 1026.3
20221207231021 55 0.0 0.0 0.00 1.93 1.47 98 1026.2
20221207230921 55 0.0 1.0 0.00 1.93 1.47 98 1026.2
20221207230821 55 270 1.0 2.0 0.00 1.93 1.47 98 1026.3
20221207230721 55 0.0 1.0 0.00 1.93 1.47 98 1026.3
20221207230621 55 270 1.0 2.0 0.00 1.93 1.47 98 1026.3
20221207230521 55 225 2.0 3.0 0.00 1.93 1.47 98 1026.3
20221207230420 55 225 3.0 4.0 0.00 1.93 1.47 98 1026.3
20221207230322 55 248 1.0 2.0 0.00 1.93 1.47 98 1026.3
20221207230219 55 248 1.0 2.0 0.00 1.93 1.47 98 1026.3
20221207230159 55 0.0 1.0 0.00 1.93 1.47 98 1026.4
20221207230021 55 248 1.0 1.0 0.00 1.93 1.47 98 1026.4
20221207225921 55 248 1.0 1.0 0.00 1.93 1.47 98 1026.3
20221207225821 55 248 1.0 3.0 0.00 1.93 1.47 98 1026.3
20221207225722 55 248 2.0 3.0 0.00 1.93 1.47 98 1026.3
20221207225620 55 248 2.0 3.0 0.00 1.93 1.47 98 1026.4
20221207225601 55 248 2.0 3.0 0.00 1.93 1.47 98 1026.3
20221207225421 55 203 1.0 2.0 0.00 1.93 1.47 98 1026.3
20221207225320 55 203 1.0 2.0 0.00 1.93 1.47 98 1026.2
20221207225219 55 203 1.0 2.0 0.00 1.93 1.47 98 1026.2
20221207225119 56 203 1.0 1.0 0.00 1.93 1.47 98 1026.1
20221207225019 56 0.0 1.0 0.00 1.93 1.47 98 1026.0
20221207224918 56 0.0 1.0 0.00 1.93 1.47 98 1026.0
20221207224842 56 203 1.0 1.0 0.00 1.93 1.47 98 1026.0
20221207224721 56 0.0 1.0 0.00 1.93 1.47 98 1026.0
20221207224622 56 203 1.0 2.0 0.00 1.93 1.47 98 1026.0
20221207224521 56 203 2.0 3.0 0.00 1.93 1.47 98 1026.0
20221207224422 56 203 1.0 1.0 0.00 1.93 1.47 98 1026.0
20221207224320 56 203 1.0 2.0 0.00 1.93 1.47 98 1026.0
20221207224220 56 0.0 1.0 0.00 1.93 1.47 98 1026.0
20221207224120 56 0.0 1.0 0.00 1.93 1.47 98 1026.0
20221207224019 56 0.0 1.0 0.00 1.93 1.47 98 1026.0
20221207223920 56 203 1.0 2.0 0.00 1.93 1.47 98 1026.0
20221207223820 56 203 1.0 1.0 0.00 1.93 1.47 98 1026.0
20221207223720 56 203 1.0 2.0 0.00 1.93 1.47 98 1026.1
20221207223621 56 203 2.0 3.0 0.00 1.93 1.47 98 1026.0
20221207223522 56 203 1.0 3.0 0.00 1.93 1.47 98 1026.0
20221207223440 56 203 1.0 1.0 0.00 1.93 1.47 98 1026.0
20221207223320 56 203 1.0 2.0 0.00 1.93 1.47 98 1026.0
20221207223220 56 0.0 0.0 0.00 1.93 1.47 98 1026.0
20221207223140 56 0.0 1.0 0.00 1.93 1.47 98 1026.0
20221207223020 56 203 1.0 1.0 0.00 1.93 1.47 98 1026.0
20221207222940 56 203 1.0 1.0 0.00 1.93 1.47 98 1026.1
20221207222820 56 0.0 1.0 0.00 1.93 1.47 98 1026.0
20221207222721 56 0.0 1.0 0.00 1.93 1.47 98 1026.1
20221207222622 56 0.0 1.0 0.00 1.93 1.47 98 1026.1
20221207222521 56 0.0 1.0 0.00 1.93 1.47 98 1026.1
20221207222420 56 0.0 1.0 0.00 1.93 1.47 98 1026.1
20221207222321 56 0.0 0.0 0.00 1.93 1.47 98 1026.0
20221207222240 56 0.0 1.0 0.00 1.93 1.47 98 1026.1
20221207222120 56 0.0 1.0 0.00 1.93 1.47 98 1026.0
20221207222020 56 203 1.0 1.0 0.00 1.93 1.47 98 1026.0
20221207221941 56 203 1.0 2.0 0.00 1.93 1.47 98 1026.0
20221207221820 56 0.0 1.0 0.00 1.93 1.47 98 1026.0
20221207221720 56 0.0 1.0 0.00 1.93 1.47 98 1026.1
20221207221621 56 0.0 1.0 0.00 1.93 1.47 98 1026.0
20221207221521 56 0.0 1.0 0.00 1.93 1.47 98 1026.0
20221207221420 56 203 1.0 2.0 0.00 1.93 1.47 98 1026.1
20221207221341 56 203 1.0 2.0 0.00 1.93 1.47 98 1026.1
20221207221220 56 203 1.0 2.0 0.00 1.93 1.47 98 1026.2
20221207221122 56 203 1.0 2.0 0.00 1.93 1.47 98 1026.3
20221207221020 56 203 1.0 2.0 0.00 1.93 1.47 98 1026.3
20221207220920 56 203 1.0 2.0 0.00 1.93 1.47 98 1026.3
20221207220820 56 203 1.0 2.0 0.00 1.93 1.47 98 1026.3
20221207220720 56 203 1.0 2.0 0.00 1.93 1.47 98 1026.4
20221207220620 56 203 1.0 2.0 0.00 1.93 1.47 98 1026.3
20221207220540 56 0.0 1.0 0.00 1.93 1.47 98 1026.3
20221207220420 56 0.0 1.0 0.00 1.93 1.47 98 1026.3
20221207220322 56 203 1.0 1.0 0.00 1.93 1.47 98 1026.3
20221207220221 56 203 1.0 1.0 0.00 1.93 1.47 98 1026.3
20221207220120 56 0.0 0.0 0.00 1.93 1.47 98 1026.3
20221207220040 56 203 1.0 2.0 0.00 1.93 1.47 98 1026.3
20221207215921 56 203 1.0 2.0 0.00 1.93 1.47 98 1026.3
20221207215840 56 203 1.0 2.0 0.00 1.93 1.47 98 1026.4
20221207215720 56 203 1.0 1.0 0.00 1.93 1.47 98 1026.4
20221207215620 56 0.0 1.0 0.00 1.93 1.47 98 1026.4
20221207215522 56 203 1.0 2.0 0.00 1.93 1.47 98 1026.4
20221207215420 56 203 1.0 2.0 0.00 1.93 1.47 98 1026.4
20221207215321 56 203 1.0 2.0 0.00 1.93 1.47 98 1026.5
20221207215241 56 203 1.0 1.0 0.00 1.93 1.47 98 1026.5
20221207215121 56 203 1.0 1.0 0.00 1.93 1.47 98 1026.5
20221207215021 56 203 1.0 1.0 0.00 1.93 1.47 98 1026.6
20221207214942 56 203 1.0 2.0 0.00 1.93 1.47 98 1026.6
20221207214820 56 203 1.0 2.0 0.00 1.93 1.47 98 1026.7
20221207214720 56 203 1.0 2.0 0.00 1.93 1.47 98 1026.7
20221207214620 56 0.0 0.0 0.00 1.93 1.47 98 1026.7
20221207214520 56 0.0 0.0 0.00 1.93 1.47 98 1026.7
20221207214420 56 0.0 0.0 0.00 1.93 1.47 98 1026.8
20221207214320 56 0.0 0.0 0.00 1.93 1.47 98 1026.8
20221207214221 56 203 1.0 2.0 0.00 1.93 1.47 98 1026.8
20221207214141 56 203 1.0 2.0 0.00 1.93 1.47 98 1026.9
20221207214020 56 0.0 1.0 0.00 1.93 1.47 98 1026.9
20221207213920 56 0.0 0.0 0.00 1.93 1.47 98 1026.9
20221207213821 56 0.0 1.0 0.00 1.93 1.47 98 1026.9
20221207213720 56 0.0 1.0 0.00 1.93 1.47 98 1026.9
20221207213642 56 203 1.0 1.0 0.00 1.93 1.47 98 1026.9
20221207213520 56 203 1.0 1.0 0.00 1.93 1.47 98 1026.9
20221207213420 56 203 1.0 1.0 0.00 1.93 1.47 98 1026.9
20221207213321 56 0.0 1.0 0.00 1.93 1.47 98 1026.9
20221207213220 56 0.0 1.0 0.00 1.93 1.47 98 1026.9
20221207213120 56 203 1.0 2.0 0.00 1.93 1.47 98 1027.0
20221207213020 56 0.0 2.0 0.00 1.93 1.47 98 1027.0
20221207212941 56 203 2.0 3.0 0.00 1.93 1.47 98 1027.0
20221207212822 56 225 2.0 3.0 0.00 1.93 1.47 98 1027.0
20221207212800 56 225 1.0 2.0 0.00 1.93 1.47 98 1027.0
20221207212621 56 0.0 2.0 0.00 1.93 1.47 98 1027.0
20221207212520 56 0.0 0.0 0.00 1.93 1.47 98 1027.0
20221207212420 56 0.0 0.0 0.00 1.93 1.47 98 1027.0
20221207212320 56 0.0 0.0 0.00 1.93 1.47 98 1027.0
20221207212220 56 0.0 1.0 0.00 1.93 1.47 98 1026.9
20221207212120 56 225 1.0 1.0 0.00 1.93 1.47 98 1026.9
20221207212021 56 0.0 1.0 0.00 1.93 1.47 98 1026.8
20221207211921 56 0.0 1.0 0.00 1.93 1.47 98 1026.8
20221207211820 56 0.0 1.0 0.00 1.93 1.47 98 1026.8
20221207211720 56 225 1.0 1.0 0.00 1.93 1.47 98 1026.8
20221207211700 56 0.0 1.0 0.00 1.93 1.47 98 1026.8
20221207211521 56 0.0 0.0 0.00 1.93 1.47 98 1026.8
20221207211420 56 0.0 1.0 0.00 1.93 1.47 98 1026.8
20221207211340 56 225 1.0 1.0 0.00 1.93 1.47 98 1026.8
20221207211220 56 225 2.0 3.0 0.00 1.93 1.47 98 1026.7
20221207211119 56 225 1.0 2.0 0.00 1.93 1.47 98 1026.8
20221207211020 56 225 2.0 3.0 0.00 1.93 1.47 98 1026.8
20221207210920 56 0.0 1.0 0.00 1.93 1.47 98 1026.8
20221207210841 56 0.0 1.0 0.00 1.93 1.47 98 1026.8
20221207210721 56 0.0 1.0 0.00 1.93 1.47 98 1026.9
20221207210620 56 225 1.0 1.0 0.00 1.93 1.47 98 1026.8
20221207210520 56 225 1.0 2.0 0.00 1.93 1.47 98 1026.9
20221207210420 56 225 1.0 1.0 0.00 1.93 1.47 98 1026.8
20221207210322 56 0.0 1.0 0.00 1.93 1.47 98 1026.8
20221207210220 56 225 1.0 3.0 0.00 1.93 1.47 98 1026.8
20221207210120 56 0.0 0.0 0.00 1.93 1.47 98 1026.7
20221207210020 56 0.0 0.0 0.00 1.93 1.47 98 1026.7
20221207205920 56 0.0 0.0 0.00 1.93 1.47 98 1026.7
20221207205820 56 0.0 0.0 0.00 1.93 1.47 98 1026.6
20221207205720 56 0.0 0.0 0.00 1.93 1.47 98 1026.6
20221207205640 56 0.0 0.0 0.00 1.93 1.47 98 1026.6
20221207205520 56 0.0 0.0 0.00 1.93 1.47 98 1026.6
20221207205420 56 0.0 0.0 0.00 1.93 1.47 98 1026.6
20221207205320 56 0.0 0.0 0.00 1.93 1.47 98 1026.6
20221207205221 56 0.0 0.0 0.00 1.93 1.47 98 1026.7
20221207205120 56 0.0 0.0 0.00 1.93 1.47 98 1026.7
20221207205020 56 0.0 0.0 0.00 1.93 1.47 98 1026.7
20221207204920 56 0.0 0.0 0.00 1.93 1.47 98 1026.7
20221207204822 57 0.0 0.0 0.00 1.93 1.47 98 1026.7
20221207204720 57 0.0 0.0 0.00 1.93 1.47 98 1026.8
20221207204620 57 0.0 0.0 0.00 1.93 1.47 98 1026.8
20221207204540 57 0.0 0.0 0.00 1.93 1.47 98 1026.7
20221207204420 57 0.0 0.0 0.00 1.93 1.47 98 1026.7
20221207204340 57 0.0 0.0 0.00 1.93 1.47 98 1026.7
20221207204220 57 0.0 0.0 0.00 1.93 1.47 98 1026.7
20221207204120 57 0.0 0.0 0.00 1.93 1.47 98 1026.7
20221207204020 57 0.0 0.0 0.00 1.93 1.47 98 1026.7
20221207203920 57 0.0 0.0 0.00 1.93 1.47 98 1026.6
20221207203820 57 0.0 0.0 0.00 1.93 1.47 98 1026.7
20221207203720 57 0.0 0.0 0.00 1.93 1.47 98 1026.7
20221207203620 57 0.0 0.0 0.00 1.93 1.47 98 1026.7
20221207203541 57 0.0 0.0 0.00 1.93 1.47 98 1026.7
20221207203420 57 0.0 0.0 0.00 1.93 1.47 98 1026.7
20221207203320 57 0.0 0.0 0.00 1.93 1.47 98 1026.7
20221207203220 57 0.0 0.0 0.00 1.94 1.47 98 1026.8
20221207203121 57 0.0 0.0 0.00 1.94 1.47 98 1026.8
20221207203022 57 0.0 0.0 0.00 1.94 1.47 98 1026.8
20221207202920 57 0.0 0.0 0.00 1.94 1.47 98 1026.8
20221207202820 57 0.0 0.0 0.00 1.94 1.47 98 1026.6
20221207202721 57 0.0 0.0 0.00 1.94 1.47 98 1026.7
20221207202640 57 0.0 0.0 0.00 1.94 1.47 98 1026.7
20221207202520 57 0.0 0.0 0.00 1.94 1.47 98 1026.7
20221207202421 57 0.0 0.0 0.00 1.94 1.47 98 1026.7
20221207202320 57 0.0 0.0 0.00 1.94 1.47 98 1026.8
20221207202221 57 0.0 0.0 0.00 1.94 1.47 98 1026.7
20221207202120 57 0.0 0.0 0.00 1.94 1.47 98 1026.7
20221207202020 57 0.0 0.0 0.00 1.94 1.47 98 1026.7
20221207201920 57 0.0 0.0 0.00 1.94 1.47 98 1026.8
20221207201820 57 0.0 0.0 0.00 1.94 1.47 98 1026.7
20221207201720 57 0.0 0.0 0.00 1.94 1.47 98 1026.8
20221207201620 57 0.0 0.0 0.00 1.94 1.47 98 1026.8
20221207201520 57 0.0 1.0 0.00 1.94 1.47 98 1026.8
20221207201420 57 248 1.0 2.0 0.00 1.95 1.47 98 1026.8
20221207201322 57 248 1.0 2.0 0.00 1.95 1.47 98 1026.9
20221207201220 57 248 1.0 2.0 0.00 1.95 1.47 98 1026.9
20221207201120 57 248 1.0 2.0 0.00 1.95 1.47 98 1026.9